<?xml version="1.0" encoding="utf-8"?>
<gpx xmlns:xsi="http://www.w3.org/2001/XMLSchema-instance" xmlns:xsd="http://www.w3.org/2001/XMLSchema" version="1.1" creator="Shapelink.com" xmlns="http://www.topografix.com/GPX/1/1" xmlns:gpxtpx="http://www.garmin.com/xmlschemas/TrackPointExtension/v1">
  <metadata>
    <name>Längdskidåkning - Klassisk 6.93 km, 2015-02-05</name>
    <desc></desc>
    <author><name>Alexander Engvall</name></author> 
    <time>2015-02-05T20:07:53Z</time>
  </metadata>
  <trk>
    <name>Längdskidåkning - Klassisk 6.93 km, 2015-02-05</name>
    <trkseg>
      <trkpt lat="61.207874913092" lon="14.543117937999">
        <ele>465.6</ele>
        <time>2015-02-05T20:07:53Z</time>
      </trkpt>
      <trkpt lat="61.207946410699" lon="14.542774531556">
        <ele>465.2</ele>
        <time>2015-02-05T20:08:01Z</time>
      </trkpt>
      <trkpt lat="61.207976585539" lon="14.542671015091">
        <ele>464.4</ele>
        <time>2015-02-05T20:08:03Z</time>
      </trkpt>
      <trkpt lat="61.207990331855" lon="14.542622819166">
        <ele>464.2</ele>
        <time>2015-02-05T20:08:04Z</time>
      </trkpt>
      <trkpt lat="61.208041796721" lon="14.542415618598">
        <ele>463.8</ele>
        <time>2015-02-05T20:08:08Z</time>
      </trkpt>
      <trkpt lat="61.208111115034" lon="14.542177656457">
        <ele>463.8</ele>
        <time>2015-02-05T20:08:12Z</time>
      </trkpt>
      <trkpt lat="61.20826567727" lon="14.541861658827">
        <ele>463</ele>
        <time>2015-02-05T20:08:17Z</time>
      </trkpt>
      <trkpt lat="61.208297444671" lon="14.541816480386">
        <ele>462.6</ele>
        <time>2015-02-05T20:08:18Z</time>
      </trkpt>
      <trkpt lat="61.208353938677" lon="14.541725201495">
        <ele>461.8</ele>
        <time>2015-02-05T20:08:20Z</time>
      </trkpt>
      <trkpt lat="61.208441948627" lon="14.541578015331">
        <ele>461.4</ele>
        <time>2015-02-05T20:08:23Z</time>
      </trkpt>
      <trkpt lat="61.208560971607" lon="14.541305016848">
        <ele>461.4</ele>
        <time>2015-02-05T20:08:27Z</time>
      </trkpt>
      <trkpt lat="61.208655184163" lon="14.541045261767">
        <ele>460.8</ele>
        <time>2015-02-05T20:08:31Z</time>
      </trkpt>
      <trkpt lat="61.208672115601" lon="14.540981391689">
        <ele>460.6</ele>
        <time>2015-02-05T20:08:32Z</time>
      </trkpt>
      <trkpt lat="61.208690974876" lon="14.540921461104">
        <ele>460.4</ele>
        <time>2015-02-05T20:08:33Z</time>
      </trkpt>
      <trkpt lat="61.20870321245" lon="14.540810233291">
        <ele>459.6</ele>
        <time>2015-02-05T20:08:35Z</time>
      </trkpt>
      <trkpt lat="61.208707571038" lon="14.540682660773">
        <ele>458.8</ele>
        <time>2015-02-05T20:08:37Z</time>
      </trkpt>
      <trkpt lat="61.208706229934" lon="14.54064854644">
        <ele>458.4</ele>
        <time>2015-02-05T20:08:38Z</time>
      </trkpt>
      <trkpt lat="61.208707235762" lon="14.540582161792">
        <ele>457.4</ele>
        <time>2015-02-05T20:08:41Z</time>
      </trkpt>
      <trkpt lat="61.208709582694" lon="14.540585011638">
        <ele>457.2</ele>
        <time>2015-02-05T20:08:42Z</time>
      </trkpt>
      <trkpt lat="61.208707822495" lon="14.540596243384">
        <ele>457.2</ele>
        <time>2015-02-05T20:08:43Z</time>
      </trkpt>
      <trkpt lat="61.208713522187" lon="14.54056305106">
        <ele>457</ele>
        <time>2015-02-05T20:08:47Z</time>
      </trkpt>
      <trkpt lat="61.208721568811" lon="14.540519800456">
        <ele>457.2</ele>
        <time>2015-02-05T20:08:49Z</time>
      </trkpt>
      <trkpt lat="61.208717880775" lon="14.540537989179">
        <ele>457.2</ele>
        <time>2015-02-05T20:08:51Z</time>
      </trkpt>
      <trkpt lat="61.208745624864" lon="14.540174633814">
        <ele>456.6</ele>
        <time>2015-02-05T20:09:05Z</time>
      </trkpt>
      <trkpt lat="61.208745373407" lon="14.540089138434">
        <ele>456.2</ele>
        <time>2015-02-05T20:09:06Z</time>
      </trkpt>
      <trkpt lat="61.208744199941" lon="14.539802058359">
        <ele>455</ele>
        <time>2015-02-05T20:09:09Z</time>
      </trkpt>
      <trkpt lat="61.208747049787" lon="14.539743971792">
        <ele>454.6</ele>
        <time>2015-02-05T20:09:10Z</time>
      </trkpt>
      <trkpt lat="61.208757191886" lon="14.539521097071">
        <ele>454</ele>
        <time>2015-02-05T20:09:13Z</time>
      </trkpt>
      <trkpt lat="61.208771189659" lon="14.539293360848">
        <ele>453.8</ele>
        <time>2015-02-05T20:09:16Z</time>
      </trkpt>
      <trkpt lat="61.20876020937" lon="14.539044083142">
        <ele>454.6</ele>
        <time>2015-02-05T20:09:20Z</time>
      </trkpt>
      <trkpt lat="61.208764065044" lon="14.538786591174">
        <ele>454.8</ele>
        <time>2015-02-05T20:09:25Z</time>
      </trkpt>
      <trkpt lat="61.208756605153" lon="14.538665807995">
        <ele>455</ele>
        <time>2015-02-05T20:09:27Z</time>
      </trkpt>
      <trkpt lat="61.208744451398" lon="14.538553406716">
        <ele>455.2</ele>
        <time>2015-02-05T20:09:29Z</time>
      </trkpt>
      <trkpt lat="61.208664068977" lon="14.538269176487">
        <ele>454.8</ele>
        <time>2015-02-05T20:09:34Z</time>
      </trkpt>
      <trkpt lat="61.20854479454" lon="14.537910263529">
        <ele>453.6</ele>
        <time>2015-02-05T20:09:39Z</time>
      </trkpt>
      <trkpt lat="61.208529623301" lon="14.537846896365">
        <ele>453.2</ele>
        <time>2015-02-05T20:09:40Z</time>
      </trkpt>
      <trkpt lat="61.208530880586" lon="14.537708008282">
        <ele>452.6</ele>
        <time>2015-02-05T20:09:42Z</time>
      </trkpt>
      <trkpt lat="61.208548063481" lon="14.537661488737">
        <ele>452.4</ele>
        <time>2015-02-05T20:09:43Z</time>
      </trkpt>
      <trkpt lat="61.208590559714" lon="14.537605246188">
        <ele>452.4</ele>
        <time>2015-02-05T20:09:46Z</time>
      </trkpt>
      <trkpt lat="61.208603216383" lon="14.537583537067">
        <ele>452.6</ele>
        <time>2015-02-05T20:09:47Z</time>
      </trkpt>
      <trkpt lat="61.20862693716" lon="14.537580268126">
        <ele>452.8</ele>
        <time>2015-02-05T20:09:48Z</time>
      </trkpt>
      <trkpt lat="61.208675216904" lon="14.537613628088">
        <ele>452.8</ele>
        <time>2015-02-05T20:09:51Z</time>
      </trkpt>
      <trkpt lat="61.20868728684" lon="14.537631565354">
        <ele>452.8</ele>
        <time>2015-02-05T20:09:52Z</time>
      </trkpt>
      <trkpt lat="61.208725089209" lon="14.53767381013">
        <ele>452.8</ele>
        <time>2015-02-05T20:09:56Z</time>
      </trkpt>
      <trkpt lat="61.208741014819" lon="14.537693507595">
        <ele>452.8</ele>
        <time>2015-02-05T20:09:57Z</time>
      </trkpt>
      <trkpt lat="61.208829695321" lon="14.537775817853">
        <ele>453.2</ele>
        <time>2015-02-05T20:10:02Z</time>
      </trkpt>
      <trkpt lat="61.208921309488" lon="14.537856032636">
        <ele>453</ele>
        <time>2015-02-05T20:10:06Z</time>
      </trkpt>
      <trkpt lat="61.209004457936" lon="14.537927111148">
        <ele>453</ele>
        <time>2015-02-05T20:10:10Z</time>
      </trkpt>
      <trkpt lat="61.209098754311" lon="14.538000871868">
        <ele>453.6</ele>
        <time>2015-02-05T20:10:14Z</time>
      </trkpt>
      <trkpt lat="61.209138903612" lon="14.538037500771">
        <ele>453.6</ele>
        <time>2015-02-05T20:10:16Z</time>
      </trkpt>
      <trkpt lat="61.209200175301" lon="14.538105813256">
        <ele>453.8</ele>
        <time>2015-02-05T20:10:19Z</time>
      </trkpt>
      <trkpt lat="61.209301344834" lon="14.538175634483">
        <ele>454</ele>
        <time>2015-02-05T20:10:23Z</time>
      </trkpt>
      <trkpt lat="61.209416260683" lon="14.538245036615">
        <ele>454.2</ele>
        <time>2015-02-05T20:10:27Z</time>
      </trkpt>
      <trkpt lat="61.209445178238" lon="14.538274037989">
        <ele>454.4</ele>
        <time>2015-02-05T20:10:28Z</time>
      </trkpt>
      <trkpt lat="61.209469066653" lon="14.538284934459">
        <ele>454.6</ele>
        <time>2015-02-05T20:10:29Z</time>
      </trkpt>
      <trkpt lat="61.209524554831" lon="14.538327849787">
        <ele>454.8</ele>
        <time>2015-02-05T20:10:31Z</time>
      </trkpt>
      <trkpt lat="61.209573421308" lon="14.538362047939">
        <ele>454.8</ele>
        <time>2015-02-05T20:10:33Z</time>
      </trkpt>
      <trkpt lat="61.209719769282" lon="14.538457014866">
        <ele>455.4</ele>
        <time>2015-02-05T20:10:38Z</time>
      </trkpt>
      <trkpt lat="61.209856394252" lon="14.538514766157">
        <ele>455</ele>
        <time>2015-02-05T20:10:43Z</time>
      </trkpt>
      <trkpt lat="61.209984637322" lon="14.538586431402">
        <ele>455</ele>
        <time>2015-02-05T20:10:47Z</time>
      </trkpt>
      <trkpt lat="61.210100056085" lon="14.538677207379">
        <ele>455.2</ele>
        <time>2015-02-05T20:10:51Z</time>
      </trkpt>
      <trkpt lat="61.210229304983" lon="14.538717272861">
        <ele>455.4</ele>
        <time>2015-02-05T20:10:56Z</time>
      </trkpt>
      <trkpt lat="61.210376155871" lon="14.538720290345">
        <ele>455.4</ele>
        <time>2015-02-05T20:11:01Z</time>
      </trkpt>
      <trkpt lat="61.210385124504" lon="14.538700676699">
        <ele>455.4</ele>
        <time>2015-02-05T20:11:02Z</time>
      </trkpt>
      <trkpt lat="61.210441031777" lon="14.53867796175">
        <ele>455.2</ele>
        <time>2015-02-05T20:11:04Z</time>
      </trkpt>
      <trkpt lat="61.210537507446" lon="14.538610738912">
        <ele>455.6</ele>
        <time>2015-02-05T20:11:08Z</time>
      </trkpt>
      <trkpt lat="61.210634653667" lon="14.538603698116">
        <ele>455.8</ele>
        <time>2015-02-05T20:11:12Z</time>
      </trkpt>
      <trkpt lat="61.210715371364" lon="14.538603530478">
        <ele>456</ele>
        <time>2015-02-05T20:11:16Z</time>
      </trkpt>
      <trkpt lat="61.210757951416" lon="14.538615684233">
        <ele>456.4</ele>
        <time>2015-02-05T20:11:21Z</time>
      </trkpt>
      <trkpt lat="61.211014856651" lon="14.538653570421">
        <ele>457.6</ele>
        <time>2015-02-05T20:11:54Z</time>
      </trkpt>
      <trkpt lat="61.21105936454" lon="14.538642338675">
        <ele>457.2</ele>
        <time>2015-02-05T20:11:56Z</time>
      </trkpt>
      <trkpt lat="61.211132454708" lon="14.538538570753">
        <ele>456.8</ele>
        <time>2015-02-05T20:12:00Z</time>
      </trkpt>
      <trkpt lat="61.211181069728" lon="14.538475538865">
        <ele>456.6</ele>
        <time>2015-02-05T20:12:02Z</time>
      </trkpt>
      <trkpt lat="61.211231864042" lon="14.538392641874">
        <ele>456.6</ele>
        <time>2015-02-05T20:12:04Z</time>
      </trkpt>
      <trkpt lat="61.211259859588" lon="14.5383552586">
        <ele>456.6</ele>
        <time>2015-02-05T20:12:07Z</time>
      </trkpt>
      <trkpt lat="61.211255249543" lon="14.538362467034">
        <ele>456.6</ele>
        <time>2015-02-05T20:12:08Z</time>
      </trkpt>
      <trkpt lat="61.211429676882" lon="14.538325167579">
        <ele>456.4</ele>
        <time>2015-02-05T20:12:24Z</time>
      </trkpt>
      <trkpt lat="61.211446859777" lon="14.538337153696">
        <ele>456.4</ele>
        <time>2015-02-05T20:12:25Z</time>
      </trkpt>
      <trkpt lat="61.21158155691" lon="14.538330615814">
        <ele>455.8</ele>
        <time>2015-02-05T20:12:29Z</time>
      </trkpt>
      <trkpt lat="61.21160837899" lon="14.538362215577">
        <ele>456</ele>
        <time>2015-02-05T20:12:30Z</time>
      </trkpt>
      <trkpt lat="61.211658586571" lon="14.538359617188">
        <ele>455.8</ele>
        <time>2015-02-05T20:12:32Z</time>
      </trkpt>
      <trkpt lat="61.211753888774" lon="14.538396581367">
        <ele>456.2</ele>
        <time>2015-02-05T20:12:36Z</time>
      </trkpt>
      <trkpt lat="61.21179445717" lon="14.538429941329">
        <ele>456.2</ele>
        <time>2015-02-05T20:12:38Z</time>
      </trkpt>
      <trkpt lat="61.211839132697" lon="14.538473778666">
        <ele>456.2</ele>
        <time>2015-02-05T20:12:40Z</time>
      </trkpt>
      <trkpt lat="61.211922867878" lon="14.538648792738">
        <ele>456.4</ele>
        <time>2015-02-05T20:12:45Z</time>
      </trkpt>
      <trkpt lat="61.211976512038" lon="14.538838726592">
        <ele>457</ele>
        <time>2015-02-05T20:12:50Z</time>
      </trkpt>
      <trkpt lat="61.212048847835" lon="14.538972250259">
        <ele>457</ele>
        <time>2015-02-05T20:12:54Z</time>
      </trkpt>
      <trkpt lat="61.212121938003" lon="14.539115413111">
        <ele>457.4</ele>
        <time>2015-02-05T20:12:59Z</time>
      </trkpt>
      <trkpt lat="61.212123111469" lon="14.539164363407">
        <ele>457.8</ele>
        <time>2015-02-05T20:13:00Z</time>
      </trkpt>
      <trkpt lat="61.212112047361" lon="14.539284978948">
        <ele>459</ele>
        <time>2015-02-05T20:13:04Z</time>
      </trkpt>
      <trkpt lat="61.212112382637" lon="14.539287996432">
        <ele>459.6</ele>
        <time>2015-02-05T20:13:06Z</time>
      </trkpt>
      <trkpt lat="61.211970644708" lon="14.539325631163">
        <ele>459.4</ele>
        <time>2015-02-05T20:13:26Z</time>
      </trkpt>
      <trkpt lat="61.211941056601" lon="14.539302664757">
        <ele>459.2</ele>
        <time>2015-02-05T20:13:27Z</time>
      </trkpt>
      <trkpt lat="61.21181038278" lon="14.53930744244">
        <ele>458.6</ele>
        <time>2015-02-05T20:13:31Z</time>
      </trkpt>
      <trkpt lat="61.211696137483" lon="14.53926972389">
        <ele>458.4</ele>
        <time>2015-02-05T20:13:35Z</time>
      </trkpt>
      <trkpt lat="61.211524811447" lon="14.539086327918">
        <ele>458.4</ele>
        <time>2015-02-05T20:13:40Z</time>
      </trkpt>
      <trkpt lat="61.211425821208" lon="14.539053135594">
        <ele>457.8</ele>
        <time>2015-02-05T20:13:43Z</time>
      </trkpt>
      <trkpt lat="61.211400256413" lon="14.539041903848">
        <ele>457.8</ele>
        <time>2015-02-05T20:13:44Z</time>
      </trkpt>
      <trkpt lat="61.211301182355" lon="14.539038467269">
        <ele>458</ele>
        <time>2015-02-05T20:13:48Z</time>
      </trkpt>
      <trkpt lat="61.211281820166" lon="14.539016841967">
        <ele>458.2</ele>
        <time>2015-02-05T20:13:49Z</time>
      </trkpt>
      <trkpt lat="61.211202778849" lon="14.538802181508">
        <ele>458.2</ele>
        <time>2015-02-05T20:13:54Z</time>
      </trkpt>
      <trkpt lat="61.211203868496" lon="14.538544186626">
        <ele>458</ele>
        <time>2015-02-05T20:13:58Z</time>
      </trkpt>
      <trkpt lat="61.211231444947" lon="14.538260291673">
        <ele>457</ele>
        <time>2015-02-05T20:14:02Z</time>
      </trkpt>
      <trkpt lat="61.21124125177" lon="14.53815493119">
        <ele>456.6</ele>
        <time>2015-02-05T20:14:04Z</time>
      </trkpt>
      <trkpt lat="61.211244855987" lon="14.53803339364">
        <ele>456.4</ele>
        <time>2015-02-05T20:14:06Z</time>
      </trkpt>
      <trkpt lat="61.211242173779" lon="14.537784786486">
        <ele>456.4</ele>
        <time>2015-02-05T20:14:11Z</time>
      </trkpt>
      <trkpt lat="61.211234210974" lon="14.537529976726">
        <ele>457</ele>
        <time>2015-02-05T20:14:17Z</time>
      </trkpt>
      <trkpt lat="61.211223565961" lon="14.537383628752">
        <ele>457.2</ele>
        <time>2015-02-05T20:14:21Z</time>
      </trkpt>
      <trkpt lat="61.211217866269" lon="14.537283716504">
        <ele>457.8</ele>
        <time>2015-02-05T20:14:24Z</time>
      </trkpt>
      <trkpt lat="61.21120269503" lon="14.537114821219">
        <ele>458.2</ele>
        <time>2015-02-05T20:14:28Z</time>
      </trkpt>
      <trkpt lat="61.21118593123" lon="14.536946847943">
        <ele>458.4</ele>
        <time>2015-02-05T20:14:32Z</time>
      </trkpt>
      <trkpt lat="61.211181656461" lon="14.536908794117">
        <ele>459</ele>
        <time>2015-02-05T20:14:35Z</time>
      </trkpt>
      <trkpt lat="61.211179309529" lon="14.536889599566">
        <ele>459.2</ele>
        <time>2015-02-05T20:14:36Z</time>
      </trkpt>
      <trkpt lat="61.211170676172" lon="14.536784825816">
        <ele>459.2</ele>
        <time>2015-02-05T20:14:40Z</time>
      </trkpt>
      <trkpt lat="61.211152487449" lon="14.536578882533">
        <ele>459.6</ele>
        <time>2015-02-05T20:14:47Z</time>
      </trkpt>
      <trkpt lat="61.211150559612" lon="14.536510318591">
        <ele>460</ele>
        <time>2015-02-05T20:14:49Z</time>
      </trkpt>
      <trkpt lat="61.211119630401" lon="14.536403030271">
        <ele>460.8</ele>
        <time>2015-02-05T20:14:54Z</time>
      </trkpt>
      <trkpt lat="61.211113343976" lon="14.536383416625">
        <ele>461.2</ele>
        <time>2015-02-05T20:14:55Z</time>
      </trkpt>
      <trkpt lat="61.211087946819" lon="14.536275876848">
        <ele>461.8</ele>
        <time>2015-02-05T20:14:59Z</time>
      </trkpt>
      <trkpt lat="61.211058861626" lon="14.536155345126">
        <ele>461.8</ele>
        <time>2015-02-05T20:15:05Z</time>
      </trkpt>
      <trkpt lat="61.211055844142" lon="14.536062892769">
        <ele>461.8</ele>
        <time>2015-02-05T20:15:10Z</time>
      </trkpt>
      <trkpt lat="61.211054419219" lon="14.535840185686">
        <ele>462</ele>
        <time>2015-02-05T20:15:18Z</time>
      </trkpt>
      <trkpt lat="61.211043187473" lon="14.535772208477">
        <ele>461.8</ele>
        <time>2015-02-05T20:15:20Z</time>
      </trkpt>
      <trkpt lat="61.211007899674" lon="14.535700291775">
        <ele>461.6</ele>
        <time>2015-02-05T20:15:22Z</time>
      </trkpt>
      <trkpt lat="61.210906478684" lon="14.535655280972">
        <ele>461.4</ele>
        <time>2015-02-05T20:15:26Z</time>
      </trkpt>
      <trkpt lat="61.21078779098" lon="14.535612868558">
        <ele>461</ele>
        <time>2015-02-05T20:15:30Z</time>
      </trkpt>
      <trkpt lat="61.210708582025" lon="14.535562912434">
        <ele>460.8</ele>
        <time>2015-02-05T20:15:34Z</time>
      </trkpt>
      <trkpt lat="61.210703301428" lon="14.535567690117">
        <ele>461</ele>
        <time>2015-02-05T20:15:37Z</time>
      </trkpt>
      <trkpt lat="61.210647394155" lon="14.535156055008">
        <ele>461.6</ele>
        <time>2015-02-05T20:16:16Z</time>
      </trkpt>
      <trkpt lat="61.210618141324" lon="14.534967965172">
        <ele>461.6</ele>
        <time>2015-02-05T20:16:20Z</time>
      </trkpt>
      <trkpt lat="61.210612944546" lon="14.534908872777">
        <ele>461.4</ele>
        <time>2015-02-05T20:16:21Z</time>
      </trkpt>
      <trkpt lat="61.21058578719" lon="14.534741402415">
        <ele>461.6</ele>
        <time>2015-02-05T20:16:24Z</time>
      </trkpt>
      <trkpt lat="61.210577908204" lon="14.534688596445">
        <ele>461.6</ele>
        <time>2015-02-05T20:16:25Z</time>
      </trkpt>
      <trkpt lat="61.210555863807" lon="14.534446275716">
        <ele>462.2</ele>
        <time>2015-02-05T20:16:29Z</time>
      </trkpt>
      <trkpt lat="61.210549074468" lon="14.534385339303">
        <ele>462.2</ele>
        <time>2015-02-05T20:16:30Z</time>
      </trkpt>
      <trkpt lat="61.21052879027" lon="14.534203116797">
        <ele>462.2</ele>
        <time>2015-02-05T20:16:33Z</time>
      </trkpt>
      <trkpt lat="61.210508170796" lon="14.533953336177">
        <ele>462.6</ele>
        <time>2015-02-05T20:16:37Z</time>
      </trkpt>
      <trkpt lat="61.21050364457" lon="14.533813861361">
        <ele>463.2</ele>
        <time>2015-02-05T20:16:40Z</time>
      </trkpt>
      <trkpt lat="61.210499369801" lon="14.533758121726">
        <ele>464.2</ele>
        <time>2015-02-05T20:16:42Z</time>
      </trkpt>
      <trkpt lat="61.210499369801" lon="14.533734065673">
        <ele>464.2</ele>
        <time>2015-02-05T20:16:43Z</time>
      </trkpt>
      <trkpt lat="61.210495430308" lon="14.533689809241">
        <ele>465</ele>
        <time>2015-02-05T20:16:45Z</time>
      </trkpt>
      <trkpt lat="61.21047766068" lon="14.533531307512">
        <ele>465</ele>
        <time>2015-02-05T20:16:48Z</time>
      </trkpt>
      <trkpt lat="61.210473553549" lon="14.533481435207">
        <ele>465</ele>
        <time>2015-02-05T20:16:49Z</time>
      </trkpt>
      <trkpt lat="61.21044329489" lon="14.533170885812">
        <ele>465</ele>
        <time>2015-02-05T20:16:54Z</time>
      </trkpt>
      <trkpt lat="61.210404235236" lon="14.532768638431">
        <ele>465</ele>
        <time>2015-02-05T20:16:59Z</time>
      </trkpt>
      <trkpt lat="61.210399038458" lon="14.532727315664">
        <ele>465.4</ele>
        <time>2015-02-05T20:17:00Z</time>
      </trkpt>
      <trkpt lat="61.210377413156" lon="14.532611310168">
        <ele>465.6</ele>
        <time>2015-02-05T20:17:02Z</time>
      </trkpt>
      <trkpt lat="61.210349501429" lon="14.532363457385">
        <ele>466</ele>
        <time>2015-02-05T20:17:06Z</time>
      </trkpt>
      <trkpt lat="61.210313459259" lon="14.531918127038">
        <ele>466</ele>
        <time>2015-02-05T20:17:11Z</time>
      </trkpt>
      <trkpt lat="61.210265933886" lon="14.531535409484">
        <ele>465.4</ele>
        <time>2015-02-05T20:17:16Z</time>
      </trkpt>
      <trkpt lat="61.21023961472" lon="14.531305493967">
        <ele>465.2</ele>
        <time>2015-02-05T20:17:19Z</time>
      </trkpt>
      <trkpt lat="61.210211702993" lon="14.530901402568">
        <ele>466.2</ele>
        <time>2015-02-05T20:17:25Z</time>
      </trkpt>
      <trkpt lat="61.210209523699" lon="14.530797634646">
        <ele>466.4</ele>
        <time>2015-02-05T20:17:27Z</time>
      </trkpt>
      <trkpt lat="61.210225114033" lon="14.530588087146">
        <ele>466.8</ele>
        <time>2015-02-05T20:17:31Z</time>
      </trkpt>
      <trkpt lat="61.210242213109" lon="14.530349622091">
        <ele>466.2</ele>
        <time>2015-02-05T20:17:38Z</time>
      </trkpt>
      <trkpt lat="61.210241626376" lon="14.530350125005">
        <ele>466.2</ele>
        <time>2015-02-05T20:17:40Z</time>
      </trkpt>
      <trkpt lat="61.210156298634" lon="14.530026332208">
        <ele>466</ele>
        <time>2015-02-05T20:18:26Z</time>
      </trkpt>
      <trkpt lat="61.210121346111" lon="14.52998844602">
        <ele>466</ele>
        <time>2015-02-05T20:18:28Z</time>
      </trkpt>
      <trkpt lat="61.210069881245" lon="14.529987356373">
        <ele>466</ele>
        <time>2015-02-05T20:18:30Z</time>
      </trkpt>
      <trkpt lat="61.210023529338" lon="14.529981656681">
        <ele>466</ele>
        <time>2015-02-05T20:18:32Z</time>
      </trkpt>
      <trkpt lat="61.209902746159" lon="14.53003538466">
        <ele>465.6</ele>
        <time>2015-02-05T20:18:37Z</time>
      </trkpt>
      <trkpt lat="61.209820435901" lon="14.530084921689">
        <ele>465.2</ele>
        <time>2015-02-05T20:18:40Z</time>
      </trkpt>
      <trkpt lat="61.209802833911" lon="14.530101685489">
        <ele>465.2</ele>
        <time>2015-02-05T20:18:41Z</time>
      </trkpt>
      <trkpt lat="61.209724714603" lon="14.530123143153">
        <ele>465.2</ele>
        <time>2015-02-05T20:18:46Z</time>
      </trkpt>
      <trkpt lat="61.209706442061" lon="14.530139068763">
        <ele>465.2</ele>
        <time>2015-02-05T20:18:47Z</time>
      </trkpt>
      <trkpt lat="61.209666460398" lon="14.530188019059">
        <ele>465.2</ele>
        <time>2015-02-05T20:18:50Z</time>
      </trkpt>
      <trkpt lat="61.209643074897" lon="14.530191623276">
        <ele>465.2</ele>
        <time>2015-02-05T20:18:51Z</time>
      </trkpt>
      <trkpt lat="61.209547856513" lon="14.530211823655">
        <ele>465.8</ele>
        <time>2015-02-05T20:18:56Z</time>
      </trkpt>
      <trkpt lat="61.209514245094" lon="14.530225569971">
        <ele>466.2</ele>
        <time>2015-02-05T20:18:58Z</time>
      </trkpt>
      <trkpt lat="61.209417434149" lon="14.530271502783">
        <ele>467</ele>
        <time>2015-02-05T20:19:03Z</time>
      </trkpt>
      <trkpt lat="61.209387510766" lon="14.530285668194">
        <ele>467.8</ele>
        <time>2015-02-05T20:19:05Z</time>
      </trkpt>
      <trkpt lat="61.209357671202" lon="14.530284913823">
        <ele>469</ele>
        <time>2015-02-05T20:19:08Z</time>
      </trkpt>
      <trkpt lat="61.209341326497" lon="14.530278543579">
        <ele>470</ele>
        <time>2015-02-05T20:19:11Z</time>
      </trkpt>
      <trkpt lat="61.209338057556" lon="14.530280471416">
        <ele>470.2</ele>
        <time>2015-02-05T20:19:12Z</time>
      </trkpt>
      <trkpt lat="61.209320707023" lon="14.530278208303">
        <ele>470.2</ele>
        <time>2015-02-05T20:19:14Z</time>
      </trkpt>
      <trkpt lat="61.209315007331" lon="14.530272173335">
        <ele>470.2</ele>
        <time>2015-02-05T20:19:17Z</time>
      </trkpt>
      <trkpt lat="61.20903597388" lon="14.530255325716">
        <ele>470.8</ele>
        <time>2015-02-05T20:20:00Z</time>
      </trkpt>
      <trkpt lat="61.209010325266" lon="14.530265635453">
        <ele>470.8</ele>
        <time>2015-02-05T20:20:01Z</time>
      </trkpt>
      <trkpt lat="61.208875460495" lon="14.530354902688">
        <ele>470.2</ele>
        <time>2015-02-05T20:20:06Z</time>
      </trkpt>
      <trkpt lat="61.208758449171" lon="14.530471662555">
        <ele>470.2</ele>
        <time>2015-02-05T20:20:10Z</time>
      </trkpt>
      <trkpt lat="61.20859089499" lon="14.530670648861">
        <ele>469.6</ele>
        <time>2015-02-05T20:20:15Z</time>
      </trkpt>
      <trkpt lat="61.208515709347" lon="14.530820181957">
        <ele>469</ele>
        <time>2015-02-05T20:20:18Z</time>
      </trkpt>
      <trkpt lat="61.208482433204" lon="14.53086938371">
        <ele>468.6</ele>
        <time>2015-02-05T20:20:19Z</time>
      </trkpt>
      <trkpt lat="61.208364332233" lon="14.531149925903">
        <ele>467.8</ele>
        <time>2015-02-05T20:20:24Z</time>
      </trkpt>
      <trkpt lat="61.208280261776" lon="14.531337177549">
        <ele>467.6</ele>
        <time>2015-02-05T20:20:27Z</time>
      </trkpt>
      <trkpt lat="61.208122095323" lon="14.531613361154">
        <ele>466.8</ele>
        <time>2015-02-05T20:20:32Z</time>
      </trkpt>
      <trkpt lat="61.208007011836" lon="14.531775383281">
        <ele>466.4</ele>
        <time>2015-02-05T20:20:36Z</time>
      </trkpt>
      <trkpt lat="61.207920678266" lon="14.531930699888">
        <ele>466.4</ele>
        <time>2015-02-05T20:20:40Z</time>
      </trkpt>
      <trkpt lat="61.207867369382" lon="14.532067827772">
        <ele>466</ele>
        <time>2015-02-05T20:20:43Z</time>
      </trkpt>
      <trkpt lat="61.207857227283" lon="14.532093476386">
        <ele>465.8</ele>
        <time>2015-02-05T20:20:44Z</time>
      </trkpt>
      <trkpt lat="61.207780784355" lon="14.532272178494">
        <ele>466.4</ele>
        <time>2015-02-05T20:20:48Z</time>
      </trkpt>
      <trkpt lat="61.207716914277" lon="14.532370665819">
        <ele>466.8</ele>
        <time>2015-02-05T20:20:51Z</time>
      </trkpt>
      <trkpt lat="61.207685398333" lon="14.532405869799">
        <ele>466.8</ele>
        <time>2015-02-05T20:20:52Z</time>
      </trkpt>
      <trkpt lat="61.207664024488" lon="14.53243176987">
        <ele>466.8</ele>
        <time>2015-02-05T20:20:53Z</time>
      </trkpt>
      <trkpt lat="61.207598813306" lon="14.532486838953">
        <ele>466.8</ele>
        <time>2015-02-05T20:20:55Z</time>
      </trkpt>
      <trkpt lat="61.207408627995" lon="14.532661014835">
        <ele>466.2</ele>
        <time>2015-02-05T20:21:00Z</time>
      </trkpt>
      <trkpt lat="61.20736294664" lon="14.532709294579">
        <ele>465.8</ele>
        <time>2015-02-05T20:21:01Z</time>
      </trkpt>
      <trkpt lat="61.207314834534" lon="14.532756736133">
        <ele>465.6</ele>
        <time>2015-02-05T20:21:02Z</time>
      </trkpt>
      <trkpt lat="61.207228752421" lon="14.532825467713">
        <ele>464.8</ele>
        <time>2015-02-05T20:21:04Z</time>
      </trkpt>
      <trkpt lat="61.207182987247" lon="14.532861174607">
        <ele>464.2</ele>
        <time>2015-02-05T20:21:05Z</time>
      </trkpt>
      <trkpt lat="61.207164714705" lon="14.532892187637">
        <ele>463.8</ele>
        <time>2015-02-05T20:21:06Z</time>
      </trkpt>
      <trkpt lat="61.207114507124" lon="14.532917752432">
        <ele>463.2</ele>
        <time>2015-02-05T20:21:08Z</time>
      </trkpt>
      <trkpt lat="61.207104113568" lon="14.532924374133">
        <ele>463.4</ele>
        <time>2015-02-05T20:21:09Z</time>
      </trkpt>
      <trkpt lat="61.207054073625" lon="14.532988579487">
        <ele>464.4</ele>
        <time>2015-02-05T20:21:12Z</time>
      </trkpt>
      <trkpt lat="61.207035298169" lon="14.533013306092">
        <ele>464.6</ele>
        <time>2015-02-05T20:21:13Z</time>
      </trkpt>
      <trkpt lat="61.207023563509" lon="14.533028142055">
        <ele>464.4</ele>
        <time>2015-02-05T20:21:14Z</time>
      </trkpt>
      <trkpt lat="61.207024820794" lon="14.533017077947">
        <ele>464.8</ele>
        <time>2015-02-05T20:21:16Z</time>
      </trkpt>
      <trkpt lat="61.207012331763" lon="14.533003834545">
        <ele>465.2</ele>
        <time>2015-02-05T20:21:19Z</time>
      </trkpt>
      <trkpt lat="61.207001267655" lon="14.532830664491">
        <ele>465.2</ele>
        <time>2015-02-05T20:21:24Z</time>
      </trkpt>
      <trkpt lat="61.206989616814" lon="14.532718347031">
        <ele>465</ele>
        <time>2015-02-05T20:21:29Z</time>
      </trkpt>
      <trkpt lat="61.206993053393" lon="14.532720861601">
        <ele>465.2</ele>
        <time>2015-02-05T20:21:30Z</time>
      </trkpt>
      <trkpt lat="61.207013756686" lon="14.532191963711">
        <ele>464.6</ele>
        <time>2015-02-05T20:22:18Z</time>
      </trkpt>
      <trkpt lat="61.207028927925" lon="14.532136643171">
        <ele>464.6</ele>
        <time>2015-02-05T20:22:19Z</time>
      </trkpt>
      <trkpt lat="61.207127079974" lon="14.53190622474">
        <ele>464.6</ele>
        <time>2015-02-05T20:22:22Z</time>
      </trkpt>
      <trkpt lat="61.207164714705" lon="14.531841432653">
        <ele>464.4</ele>
        <time>2015-02-05T20:22:23Z</time>
      </trkpt>
      <trkpt lat="61.207228081869" lon="14.531646804935">
        <ele>463.2</ele>
        <time>2015-02-05T20:22:26Z</time>
      </trkpt>
      <trkpt lat="61.207235960855" lon="14.531589975653">
        <ele>462.6</ele>
        <time>2015-02-05T20:22:27Z</time>
      </trkpt>
      <trkpt lat="61.207241576728" lon="14.5314066635">
        <ele>462.8</ele>
        <time>2015-02-05T20:22:30Z</time>
      </trkpt>
      <trkpt lat="61.207215760476" lon="14.53116023564">
        <ele>464</ele>
        <time>2015-02-05T20:22:34Z</time>
      </trkpt>
      <trkpt lat="61.207204109635" lon="14.53099762678">
        <ele>464</ele>
        <time>2015-02-05T20:22:37Z</time>
      </trkpt>
      <trkpt lat="61.207201259789" lon="14.530936019815">
        <ele>464</ele>
        <time>2015-02-05T20:22:38Z</time>
      </trkpt>
      <trkpt lat="61.207177119917" lon="14.530566964758">
        <ele>464</ele>
        <time>2015-02-05T20:22:44Z</time>
      </trkpt>
      <trkpt lat="61.207174772985" lon="14.530518685014">
        <ele>463.8</ele>
        <time>2015-02-05T20:22:45Z</time>
      </trkpt>
      <trkpt lat="61.207165385257" lon="14.530322213278">
        <ele>463.8</ele>
        <time>2015-02-05T20:22:49Z</time>
      </trkpt>
      <trkpt lat="61.207157087176" lon="14.53010998357">
        <ele>464</ele>
        <time>2015-02-05T20:22:53Z</time>
      </trkpt>
      <trkpt lat="61.207112076373" lon="14.52990462702">
        <ele>464</ele>
        <time>2015-02-05T20:22:57Z</time>
      </trkpt>
      <trkpt lat="61.207080560429" lon="14.529832626499">
        <ele>464.2</ele>
        <time>2015-02-05T20:22:59Z</time>
      </trkpt>
      <trkpt lat="61.207054576539" lon="14.529783508565">
        <ele>463.8</ele>
        <time>2015-02-05T20:23:02Z</time>
      </trkpt>
      <trkpt lat="61.206992215203" lon="14.529648057061">
        <ele>464.2</ele>
        <time>2015-02-05T20:23:06Z</time>
      </trkpt>
      <trkpt lat="61.206978552706" lon="14.529613607452">
        <ele>464.2</ele>
        <time>2015-02-05T20:23:07Z</time>
      </trkpt>
      <trkpt lat="61.206965476942" lon="14.52957354197">
        <ele>464.2</ele>
        <time>2015-02-05T20:23:08Z</time>
      </trkpt>
      <trkpt lat="61.206943097269" lon="14.529518640525">
        <ele>464</ele>
        <time>2015-02-05T20:23:10Z</time>
      </trkpt>
      <trkpt lat="61.206918203026" lon="14.529442449054">
        <ele>463.8</ele>
        <time>2015-02-05T20:23:12Z</time>
      </trkpt>
      <trkpt lat="61.206848214161" lon="14.52925167701">
        <ele>464.6</ele>
        <time>2015-02-05T20:23:17Z</time>
      </trkpt>
      <trkpt lat="61.206789037947" lon="14.529109603805">
        <ele>464.8</ele>
        <time>2015-02-05T20:23:21Z</time>
      </trkpt>
      <trkpt lat="61.206679151238" lon="14.529043302976">
        <ele>464.6</ele>
        <time>2015-02-05T20:23:25Z</time>
      </trkpt>
      <trkpt lat="61.206522158251" lon="14.529121087008">
        <ele>464</ele>
        <time>2015-02-05T20:23:31Z</time>
      </trkpt>
      <trkpt lat="61.206436662871" lon="14.529165511078">
        <ele>463.8</ele>
        <time>2015-02-05T20:23:35Z</time>
      </trkpt>
      <trkpt lat="61.206391568249" lon="14.52918126905">
        <ele>464</ele>
        <time>2015-02-05T20:23:37Z</time>
      </trkpt>
      <trkpt lat="61.206359800848" lon="14.529185543819">
        <ele>464.2</ele>
        <time>2015-02-05T20:23:38Z</time>
      </trkpt>
      <trkpt lat="61.206170537546" lon="14.529197278479">
        <ele>464.6</ele>
        <time>2015-02-05T20:23:44Z</time>
      </trkpt>
      <trkpt lat="61.206103566165" lon="14.529169199114">
        <ele>464.2</ele>
        <time>2015-02-05T20:23:48Z</time>
      </trkpt>
      <trkpt lat="61.205960738589" lon="14.529182526335">
        <ele>464.6</ele>
        <time>2015-02-05T20:23:54Z</time>
      </trkpt>
      <trkpt lat="61.205937520726" lon="14.529177664833">
        <ele>464.6</ele>
        <time>2015-02-05T20:23:55Z</time>
      </trkpt>
      <trkpt lat="61.205902065289" lon="14.529150507477">
        <ele>464.6</ele>
        <time>2015-02-05T20:23:57Z</time>
      </trkpt>
      <trkpt lat="61.205857976495" lon="14.529117901886">
        <ele>464.6</ele>
        <time>2015-02-05T20:23:59Z</time>
      </trkpt>
      <trkpt lat="61.20583408808" lon="14.529064173907">
        <ele>464.6</ele>
        <time>2015-02-05T20:24:00Z</time>
      </trkpt>
      <trkpt lat="61.205819252117" lon="14.529027628823">
        <ele>464.4</ele>
        <time>2015-02-05T20:24:01Z</time>
      </trkpt>
      <trkpt lat="61.205770804735" lon="14.528867366895">
        <ele>464.6</ele>
        <time>2015-02-05T20:24:05Z</time>
      </trkpt>
      <trkpt lat="61.205729481968" lon="14.528760749127">
        <ele>464.6</ele>
        <time>2015-02-05T20:24:08Z</time>
      </trkpt>
      <trkpt lat="61.205672652686" lon="14.5286238727">
        <ele>464.6</ele>
        <time>2015-02-05T20:24:12Z</time>
      </trkpt>
      <trkpt lat="61.205636442878" lon="14.528493785612">
        <ele>464.4</ele>
        <time>2015-02-05T20:24:15Z</time>
      </trkpt>
      <trkpt lat="61.205618840888" lon="14.528453803949">
        <ele>464.6</ele>
        <time>2015-02-05T20:24:16Z</time>
      </trkpt>
      <trkpt lat="61.205534770431" lon="14.528269485968">
        <ele>465</ele>
        <time>2015-02-05T20:24:21Z</time>
      </trkpt>
      <trkpt lat="61.205505769057" lon="14.528192791583">
        <ele>465.2</ele>
        <time>2015-02-05T20:24:23Z</time>
      </trkpt>
      <trkpt lat="61.205469307792" lon="14.528047952351">
        <ele>465.6</ele>
        <time>2015-02-05T20:24:26Z</time>
      </trkpt>
      <trkpt lat="61.205428068844" lon="14.527866568035">
        <ele>465.4</ele>
        <time>2015-02-05T20:24:31Z</time>
      </trkpt>
      <trkpt lat="61.205392110493" lon="14.527703204804">
        <ele>465.6</ele>
        <time>2015-02-05T20:24:34Z</time>
      </trkpt>
      <trkpt lat="61.205363947309" lon="14.527495249865">
        <ele>465.8</ele>
        <time>2015-02-05T20:24:38Z</time>
      </trkpt>
      <trkpt lat="61.205355397771" lon="14.527341022905">
        <ele>466.4</ele>
        <time>2015-02-05T20:24:41Z</time>
      </trkpt>
      <trkpt lat="61.205356655056" lon="14.527232142024">
        <ele>466.2</ele>
        <time>2015-02-05T20:24:43Z</time>
      </trkpt>
      <trkpt lat="61.205377525987" lon="14.526884963726">
        <ele>465.6</ele>
        <time>2015-02-05T20:24:49Z</time>
      </trkpt>
      <trkpt lat="61.205407281732" lon="14.526727551644">
        <ele>465.2</ele>
        <time>2015-02-05T20:24:52Z</time>
      </trkpt>
      <trkpt lat="61.205446341386" lon="14.526638703504">
        <ele>465.2</ele>
        <time>2015-02-05T20:24:54Z</time>
      </trkpt>
      <trkpt lat="61.205590426247" lon="14.526577264177">
        <ele>465.2</ele>
        <time>2015-02-05T20:24:58Z</time>
      </trkpt>
      <trkpt lat="61.205724117552" lon="14.526528146243">
        <ele>464.4</ele>
        <time>2015-02-05T20:25:02Z</time>
      </trkpt>
      <trkpt lat="61.205755884953" lon="14.526512220633">
        <ele>464.2</ele>
        <time>2015-02-05T20:25:03Z</time>
      </trkpt>
      <trkpt lat="61.205809026199" lon="14.52646385707">
        <ele>464</ele>
        <time>2015-02-05T20:25:05Z</time>
      </trkpt>
      <trkpt lat="61.205863843825" lon="14.526410380548">
        <ele>464</ele>
        <time>2015-02-05T20:25:07Z</time>
      </trkpt>
      <trkpt lat="61.205891336457" lon="14.526372913455">
        <ele>464.2</ele>
        <time>2015-02-05T20:25:08Z</time>
      </trkpt>
      <trkpt lat="61.205964258987" lon="14.526271157189">
        <ele>464.2</ele>
        <time>2015-02-05T20:25:11Z</time>
      </trkpt>
      <trkpt lat="61.206018992794" lon="14.526119863894">
        <ele>464.4</ele>
        <time>2015-02-05T20:25:15Z</time>
      </trkpt>
      <trkpt lat="61.206026704142" lon="14.526076445652">
        <ele>464.2</ele>
        <time>2015-02-05T20:25:16Z</time>
      </trkpt>
      <trkpt lat="61.20605369386" lon="14.525992542833">
        <ele>464.4</ele>
        <time>2015-02-05T20:25:19Z</time>
      </trkpt>
      <trkpt lat="61.20607716318" lon="14.525936048827">
        <ele>464.4</ele>
        <time>2015-02-05T20:25:21Z</time>
      </trkpt>
      <trkpt lat="61.206086718546" lon="14.525812164345">
        <ele>465.6</ele>
        <time>2015-02-05T20:25:25Z</time>
      </trkpt>
      <trkpt lat="61.206051598385" lon="14.525696661763">
        <ele>466.6</ele>
        <time>2015-02-05T20:25:30Z</time>
      </trkpt>
      <trkpt lat="61.206032990567" lon="14.5256482982">
        <ele>466.8</ele>
        <time>2015-02-05T20:25:32Z</time>
      </trkpt>
      <trkpt lat="61.205985046099" lon="14.525431374628">
        <ele>466.8</ele>
        <time>2015-02-05T20:25:37Z</time>
      </trkpt>
      <trkpt lat="61.20597825676" lon="14.525394578087">
        <ele>466.8</ele>
        <time>2015-02-05T20:25:38Z</time>
      </trkpt>
      <trkpt lat="61.205964678082" lon="14.525333641674">
        <ele>466.6</ele>
        <time>2015-02-05T20:25:40Z</time>
      </trkpt>
      <trkpt lat="61.205924947876" lon="14.525147647313">
        <ele>467</ele>
        <time>2015-02-05T20:25:45Z</time>
      </trkpt>
      <trkpt lat="61.205878260693" lon="14.525030971265">
        <ele>467.2</ele>
        <time>2015-02-05T20:25:51Z</time>
      </trkpt>
      <trkpt lat="61.205880607625" lon="14.525038598794">
        <ele>467.2</ele>
        <time>2015-02-05T20:25:52Z</time>
      </trkpt>
      <trkpt lat="61.205870716983" lon="14.525019152786">
        <ele>467.4</ele>
        <time>2015-02-05T20:25:54Z</time>
      </trkpt>
      <trkpt lat="61.205843894903" lon="14.524983948806">
        <ele>467.4</ele>
        <time>2015-02-05T20:25:57Z</time>
      </trkpt>
      <trkpt lat="61.205765021224" lon="14.524843049067">
        <ele>467.2</ele>
        <time>2015-02-05T20:26:00Z</time>
      </trkpt>
      <trkpt lat="61.205655721248" lon="14.524690666125">
        <ele>465.6</ele>
        <time>2015-02-05T20:26:04Z</time>
      </trkpt>
      <trkpt lat="61.205634934136" lon="14.52469611436">
        <ele>465.2</ele>
        <time>2015-02-05T20:26:05Z</time>
      </trkpt>
      <trkpt lat="61.205593946645" lon="14.524664514597">
        <ele>465.4</ele>
        <time>2015-02-05T20:26:08Z</time>
      </trkpt>
      <trkpt lat="61.205588666048" lon="14.524659234">
        <ele>465.4</ele>
        <time>2015-02-05T20:26:09Z</time>
      </trkpt>
      <trkpt lat="61.205536027716" lon="14.524623359468">
        <ele>466.8</ele>
        <time>2015-02-05T20:26:12Z</time>
      </trkpt>
      <trkpt lat="61.205520102106" lon="14.524612882093">
        <ele>467</ele>
        <time>2015-02-05T20:26:13Z</time>
      </trkpt>
      <trkpt lat="61.20541247851" lon="14.524552616232">
        <ele>467.4</ele>
        <time>2015-02-05T20:26:19Z</time>
      </trkpt>
      <trkpt lat="61.20528088268" lon="14.524443483894">
        <ele>467.4</ele>
        <time>2015-02-05T20:26:22Z</time>
      </trkpt>
      <trkpt lat="61.205209720349" lon="14.524228152883">
        <ele>466.2</ele>
        <time>2015-02-05T20:26:25Z</time>
      </trkpt>
      <trkpt lat="61.205200667897" lon="14.524160343312">
        <ele>465.6</ele>
        <time>2015-02-05T20:26:26Z</time>
      </trkpt>
      <trkpt lat="61.20513755219" lon="14.523904527724">
        <ele>465</ele>
        <time>2015-02-05T20:26:32Z</time>
      </trkpt>
      <trkpt lat="61.205072005732" lon="14.523801346535">
        <ele>465.2</ele>
        <time>2015-02-05T20:26:36Z</time>
      </trkpt>
      <trkpt lat="61.205028000757" lon="14.523776033197">
        <ele>465.6</ele>
        <time>2015-02-05T20:26:38Z</time>
      </trkpt>
      <trkpt lat="61.204908474863" lon="14.523651981077">
        <ele>466.6</ele>
        <time>2015-02-05T20:26:45Z</time>
      </trkpt>
      <trkpt lat="61.204852986685" lon="14.523460538481">
        <ele>466.4</ele>
        <time>2015-02-05T20:26:48Z</time>
      </trkpt>
      <trkpt lat="61.204844688604" lon="14.523220732322">
        <ele>465.8</ele>
        <time>2015-02-05T20:26:52Z</time>
      </trkpt>
      <trkpt lat="61.204859021653" lon="14.523088885035">
        <ele>466.4</ele>
        <time>2015-02-05T20:26:55Z</time>
      </trkpt>
      <trkpt lat="61.204867738829" lon="14.523054183969">
        <ele>466.8</ele>
        <time>2015-02-05T20:26:56Z</time>
      </trkpt>
      <trkpt lat="61.204927417957" lon="14.522829716687">
        <ele>467.2</ele>
        <time>2015-02-05T20:27:02Z</time>
      </trkpt>
      <trkpt lat="61.204994054062" lon="14.522507767908">
        <ele>466.4</ele>
        <time>2015-02-05T20:27:07Z</time>
      </trkpt>
      <trkpt lat="61.20506211509" lon="14.522350272007">
        <ele>465.8</ele>
        <time>2015-02-05T20:27:11Z</time>
      </trkpt>
      <trkpt lat="61.205156914379" lon="14.522248012827">
        <ele>466</ele>
        <time>2015-02-05T20:27:15Z</time>
      </trkpt>
      <trkpt lat="61.205310638425" lon="14.522016253292">
        <ele>465.8</ele>
        <time>2015-02-05T20:27:21Z</time>
      </trkpt>
      <trkpt lat="61.205344920396" lon="14.521981636045">
        <ele>465.8</ele>
        <time>2015-02-05T20:27:22Z</time>
      </trkpt>
      <trkpt lat="61.205449694146" lon="14.52182531361">
        <ele>465.6</ele>
        <time>2015-02-05T20:27:26Z</time>
      </trkpt>
      <trkpt lat="61.205556898647" lon="14.521514261301">
        <ele>465</ele>
        <time>2015-02-05T20:27:32Z</time>
      </trkpt>
      <trkpt lat="61.20561867325" lon="14.52122852233">
        <ele>465.2</ele>
        <time>2015-02-05T20:27:37Z</time>
      </trkpt>
      <trkpt lat="61.20565303904" lon="14.52102232759">
        <ele>464.6</ele>
        <time>2015-02-05T20:27:40Z</time>
      </trkpt>
      <trkpt lat="61.205659660741" lon="14.520956613494">
        <ele>464.6</ele>
        <time>2015-02-05T20:27:41Z</time>
      </trkpt>
      <trkpt lat="61.205738282963" lon="14.520676658034">
        <ele>464.2</ele>
        <time>2015-02-05T20:27:46Z</time>
      </trkpt>
      <trkpt lat="61.205756723143" lon="14.520625696082">
        <ele>464.2</ele>
        <time>2015-02-05T20:27:47Z</time>
      </trkpt>
      <trkpt lat="61.20578798763" lon="14.520522850169">
        <ele>464.2</ele>
        <time>2015-02-05T20:27:49Z</time>
      </trkpt>
      <trkpt lat="61.205820928497" lon="14.520403491913">
        <ele>464.2</ele>
        <time>2015-02-05T20:27:51Z</time>
      </trkpt>
      <trkpt lat="61.205848002034" lon="14.520306345692">
        <ele>464.4</ele>
        <time>2015-02-05T20:27:53Z</time>
      </trkpt>
      <trkpt lat="61.205915141053" lon="14.520094954174">
        <ele>464.4</ele>
        <time>2015-02-05T20:27:58Z</time>
      </trkpt>
      <trkpt lat="61.205918912908" lon="14.520052709398">
        <ele>464.4</ele>
        <time>2015-02-05T20:27:59Z</time>
      </trkpt>
      <trkpt lat="61.205940873486" lon="14.520013398287">
        <ele>464.4</ele>
        <time>2015-02-05T20:28:00Z</time>
      </trkpt>
      <trkpt lat="61.205985381375" lon="14.51991926955">
        <ele>464.2</ele>
        <time>2015-02-05T20:28:02Z</time>
      </trkpt>
      <trkpt lat="61.20605956119" lon="14.519731682628">
        <ele>464.2</ele>
        <time>2015-02-05T20:28:06Z</time>
      </trkpt>
      <trkpt lat="61.206113372988" lon="14.519608887793">
        <ele>464.2</ele>
        <time>2015-02-05T20:28:10Z</time>
      </trkpt>
      <trkpt lat="61.206204316603" lon="14.519407554555">
        <ele>464.4</ele>
        <time>2015-02-05T20:28:15Z</time>
      </trkpt>
      <trkpt lat="61.206247148112" lon="14.519297416389">
        <ele>464.2</ele>
        <time>2015-02-05T20:28:19Z</time>
      </trkpt>
      <trkpt lat="61.206357705373" lon="14.519106895802">
        <ele>464.6</ele>
        <time>2015-02-05T20:28:24Z</time>
      </trkpt>
      <trkpt lat="61.206457282345" lon="14.518887373841">
        <ele>464.6</ele>
        <time>2015-02-05T20:28:28Z</time>
      </trkpt>
      <trkpt lat="61.20651050741" lon="14.518751167966">
        <ele>464.2</ele>
        <time>2015-02-05T20:28:32Z</time>
      </trkpt>
      <trkpt lat="61.206524169907" lon="14.518739768582">
        <ele>465.2</ele>
        <time>2015-02-05T20:28:34Z</time>
      </trkpt>
      <trkpt lat="61.206515285093" lon="14.518737756926">
        <ele>466.2</ele>
        <time>2015-02-05T20:28:35Z</time>
      </trkpt>
      <trkpt lat="61.206517967301" lon="14.518734990899">
        <ele>467</ele>
        <time>2015-02-05T20:28:36Z</time>
      </trkpt>
      <trkpt lat="61.206575299497" lon="14.518334419898">
        <ele>467</ele>
        <time>2015-02-05T20:28:56Z</time>
      </trkpt>
      <trkpt lat="61.20662533944" lon="14.518199136032">
        <ele>467.2</ele>
        <time>2015-02-05T20:28:59Z</time>
      </trkpt>
      <trkpt lat="61.206637744652" lon="14.518165273156">
        <ele>467</ele>
        <time>2015-02-05T20:29:00Z</time>
      </trkpt>
      <trkpt lat="61.206759366021" lon="14.517934603268">
        <ele>467.4</ele>
        <time>2015-02-05T20:29:05Z</time>
      </trkpt>
      <trkpt lat="61.206896158629" lon="14.517690019426">
        <ele>466.4</ele>
        <time>2015-02-05T20:29:10Z</time>
      </trkpt>
      <trkpt lat="61.206918454483" lon="14.51765364198">
        <ele>466.2</ele>
        <time>2015-02-05T20:29:11Z</time>
      </trkpt>
      <trkpt lat="61.206944857468" lon="14.517612486851">
        <ele>466.2</ele>
        <time>2015-02-05T20:29:12Z</time>
      </trkpt>
      <trkpt lat="61.207032280685" lon="14.517457337882">
        <ele>466.2</ele>
        <time>2015-02-05T20:29:15Z</time>
      </trkpt>
      <trkpt lat="61.207172090777" lon="14.51723203241">
        <ele>465.6</ele>
        <time>2015-02-05T20:29:20Z</time>
      </trkpt>
      <trkpt lat="61.207215089924" lon="14.517119212036">
        <ele>465.6</ele>
        <time>2015-02-05T20:29:22Z</time>
      </trkpt>
      <trkpt lat="61.207242331099" lon="14.516998093581">
        <ele>465.4</ele>
        <time>2015-02-05T20:29:24Z</time>
      </trkpt>
      <trkpt lat="61.207259094899" lon="14.516763232743">
        <ele>465.4</ele>
        <time>2015-02-05T20:29:29Z</time>
      </trkpt>
      <trkpt lat="61.207276529251" lon="14.516519319453">
        <ele>466.6</ele>
        <time>2015-02-05T20:29:34Z</time>
      </trkpt>
      <trkpt lat="61.207278457088" lon="14.516469195691">
        <ele>467.2</ele>
        <time>2015-02-05T20:29:35Z</time>
      </trkpt>
      <trkpt lat="61.207301172037" lon="14.516397698084">
        <ele>467.4</ele>
        <time>2015-02-05T20:29:38Z</time>
      </trkpt>
      <trkpt lat="61.207381051544" lon="14.516298624026">
        <ele>467.6</ele>
        <time>2015-02-05T20:29:44Z</time>
      </trkpt>
      <trkpt lat="61.207517927971" lon="14.516230143903">
        <ele>467</ele>
        <time>2015-02-05T20:29:49Z</time>
      </trkpt>
      <trkpt lat="61.207545336784" lon="14.516187731489">
        <ele>466.6</ele>
        <time>2015-02-05T20:29:50Z</time>
      </trkpt>
      <trkpt lat="61.207578110013" lon="14.516101565557">
        <ele>466.4</ele>
        <time>2015-02-05T20:29:52Z</time>
      </trkpt>
      <trkpt lat="61.207591269596" lon="14.516053285813">
        <ele>466.2</ele>
        <time>2015-02-05T20:29:53Z</time>
      </trkpt>
      <trkpt lat="61.207604596817" lon="14.516005928078">
        <ele>466.2</ele>
        <time>2015-02-05T20:29:54Z</time>
      </trkpt>
      <trkpt lat="61.207654050027" lon="14.515839212087">
        <ele>465.6</ele>
        <time>2015-02-05T20:29:58Z</time>
      </trkpt>
      <trkpt lat="61.207708364739" lon="14.515628658759">
        <ele>465.2</ele>
        <time>2015-02-05T20:30:02Z</time>
      </trkpt>
      <trkpt lat="61.207738371941" lon="14.515520867525">
        <ele>465.2</ele>
        <time>2015-02-05T20:30:04Z</time>
      </trkpt>
      <trkpt lat="61.20782311295" lon="14.515292376931">
        <ele>465.4</ele>
        <time>2015-02-05T20:30:09Z</time>
      </trkpt>
      <trkpt lat="61.207910452348" lon="14.515173186313">
        <ele>465.4</ele>
        <time>2015-02-05T20:30:13Z</time>
      </trkpt>
      <trkpt lat="61.208037521952" lon="14.515040249379">
        <ele>465.6</ele>
        <time>2015-02-05T20:30:18Z</time>
      </trkpt>
      <trkpt lat="61.208145983738" lon="14.514989287427">
        <ele>465.6</ele>
        <time>2015-02-05T20:30:22Z</time>
      </trkpt>
      <trkpt lat="61.20819024017" lon="14.514995406214">
        <ele>465.6</ele>
        <time>2015-02-05T20:30:24Z</time>
      </trkpt>
      <trkpt lat="61.208221420838" lon="14.515028598538">
        <ele>465.6</ele>
        <time>2015-02-05T20:30:25Z</time>
      </trkpt>
      <trkpt lat="61.20828327926" lon="14.51510554438">
        <ele>465.6</ele>
        <time>2015-02-05T20:30:28Z</time>
      </trkpt>
      <trkpt lat="61.208375396341" lon="14.515323557599">
        <ele>465.8</ele>
        <time>2015-02-05T20:30:34Z</time>
      </trkpt>
      <trkpt lat="61.20847690115" lon="14.515497733481">
        <ele>466</ele>
        <time>2015-02-05T20:30:38Z</time>
      </trkpt>
      <trkpt lat="61.208627020979" lon="14.515664365653">
        <ele>465.4</ele>
        <time>2015-02-05T20:30:43Z</time>
      </trkpt>
      <trkpt lat="61.208659878027" lon="14.515660929074">
        <ele>465.4</ele>
        <time>2015-02-05T20:30:44Z</time>
      </trkpt>
      <trkpt lat="61.20871494711" lon="14.515631257148">
        <ele>465</ele>
        <time>2015-02-05T20:30:46Z</time>
      </trkpt>
      <trkpt lat="61.208767417804" lon="14.515580043739">
        <ele>465</ele>
        <time>2015-02-05T20:30:48Z</time>
      </trkpt>
      <trkpt lat="61.208816871014" lon="14.515537798963">
        <ele>465.2</ele>
        <time>2015-02-05T20:30:50Z</time>
      </trkpt>
      <trkpt lat="61.208899516548" lon="14.515482226966">
        <ele>465.4</ele>
        <time>2015-02-05T20:30:53Z</time>
      </trkpt>
      <trkpt lat="61.209025412686" lon="14.515382398537">
        <ele>464.8</ele>
        <time>2015-02-05T20:30:58Z</time>
      </trkpt>
      <trkpt lat="61.209123816192" lon="14.515275780769">
        <ele>465</ele>
        <time>2015-02-05T20:31:02Z</time>
      </trkpt>
      <trkpt lat="61.209207383735" lon="14.515183412231">
        <ele>465.2</ele>
        <time>2015-02-05T20:31:05Z</time>
      </trkpt>
      <trkpt lat="61.209229260494" lon="14.515152147744">
        <ele>465</ele>
        <time>2015-02-05T20:31:06Z</time>
      </trkpt>
      <trkpt lat="61.209308553268" lon="14.515037315714">
        <ele>464.8</ele>
        <time>2015-02-05T20:31:09Z</time>
      </trkpt>
      <trkpt lat="61.209355575727" lon="14.514930949403">
        <ele>464.4</ele>
        <time>2015-02-05T20:31:12Z</time>
      </trkpt>
      <trkpt lat="61.209412069733" lon="14.514764065774">
        <ele>464.2</ele>
        <time>2015-02-05T20:31:16Z</time>
      </trkpt>
      <trkpt lat="61.209450291197" lon="14.514687119932">
        <ele>464.2</ele>
        <time>2015-02-05T20:31:18Z</time>
      </trkpt>
      <trkpt lat="61.209561854286" lon="14.514468687618">
        <ele>464.2</ele>
        <time>2015-02-05T20:31:24Z</time>
      </trkpt>
      <trkpt lat="61.20967299828" lon="14.514356789253">
        <ele>464.4</ele>
        <time>2015-02-05T20:31:29Z</time>
      </trkpt>
      <trkpt lat="61.209774000175" lon="14.514286884207">
        <ele>464.4</ele>
        <time>2015-02-05T20:31:34Z</time>
      </trkpt>
      <trkpt lat="61.209888161653" lon="14.514194348031">
        <ele>464.4</ele>
        <time>2015-02-05T20:31:39Z</time>
      </trkpt>
      <trkpt lat="61.209970471911" lon="14.514085215693">
        <ele>464.2</ele>
        <time>2015-02-05T20:31:44Z</time>
      </trkpt>
      <trkpt lat="61.210045741373" lon="14.51398320797">
        <ele>464</ele>
        <time>2015-02-05T20:31:47Z</time>
      </trkpt>
      <trkpt lat="61.21011891536" lon="14.513933419484">
        <ele>463.8</ele>
        <time>2015-02-05T20:31:50Z</time>
      </trkpt>
      <trkpt lat="61.210168200932" lon="14.513917326236">
        <ele>463.6</ele>
        <time>2015-02-05T20:31:52Z</time>
      </trkpt>
      <trkpt lat="61.210310441775" lon="14.513949931827">
        <ele>463.6</ele>
        <time>2015-02-05T20:31:57Z</time>
      </trkpt>
      <trkpt lat="61.210441115596" lon="14.513973317328">
        <ele>464.2</ele>
        <time>2015-02-05T20:32:03Z</time>
      </trkpt>
      <trkpt lat="61.210563742793" lon="14.513969042559">
        <ele>464.6</ele>
        <time>2015-02-05T20:32:07Z</time>
      </trkpt>
      <trkpt lat="61.210647477974" lon="14.513967701455">
        <ele>465</ele>
        <time>2015-02-05T20:32:13Z</time>
      </trkpt>
      <trkpt lat="61.210688800741" lon="14.513979184658">
        <ele>465.2</ele>
        <time>2015-02-05T20:32:15Z</time>
      </trkpt>
      <trkpt lat="61.210806566436" lon="14.514041545994">
        <ele>465.2</ele>
        <time>2015-02-05T20:32:19Z</time>
      </trkpt>
      <trkpt lat="61.210928690719" lon="14.514090412471">
        <ele>464</ele>
        <time>2015-02-05T20:32:23Z</time>
      </trkpt>
      <trkpt lat="61.210997589937" lon="14.514059315622">
        <ele>463.4</ele>
        <time>2015-02-05T20:32:25Z</time>
      </trkpt>
      <trkpt lat="61.211026758949" lon="14.514038947605">
        <ele>462.8</ele>
        <time>2015-02-05T20:32:26Z</time>
      </trkpt>
      <trkpt lat="61.211126922654" lon="14.514025201289">
        <ele>462.8</ele>
        <time>2015-02-05T20:32:30Z</time>
      </trkpt>
      <trkpt lat="61.211273354447" lon="14.514079935096">
        <ele>463.6</ele>
        <time>2015-02-05T20:32:35Z</time>
      </trkpt>
      <trkpt lat="61.211432610547" lon="14.514121174044">
        <ele>463.2</ele>
        <time>2015-02-05T20:32:40Z</time>
      </trkpt>
      <trkpt lat="61.211572253001" lon="14.514110529031">
        <ele>463.4</ele>
        <time>2015-02-05T20:32:45Z</time>
      </trkpt>
      <trkpt lat="61.211699993157" lon="14.514018998683">
        <ele>463.2</ele>
        <time>2015-02-05T20:32:50Z</time>
      </trkpt>
      <trkpt lat="61.211895626703" lon="14.513961331211">
        <ele>463.6</ele>
        <time>2015-02-05T20:32:57Z</time>
      </trkpt>
      <trkpt lat="61.212088326584" lon="14.513977927373">
        <ele>463.8</ele>
        <time>2015-02-05T20:33:05Z</time>
      </trkpt>
      <trkpt lat="61.212148843902" lon="14.513977592097">
        <ele>464</ele>
        <time>2015-02-05T20:33:07Z</time>
      </trkpt>
      <trkpt lat="61.212207349564" lon="14.513969964568">
        <ele>464.2</ele>
        <time>2015-02-05T20:33:09Z</time>
      </trkpt>
      <trkpt lat="61.212310279296" lon="14.513931575466">
        <ele>464.4</ele>
        <time>2015-02-05T20:33:14Z</time>
      </trkpt>
      <trkpt lat="61.212395187943" lon="14.513888241043">
        <ele>464.6</ele>
        <time>2015-02-05T20:33:18Z</time>
      </trkpt>
      <trkpt lat="61.212559054088" lon="14.513803583853">
        <ele>464.2</ele>
        <time>2015-02-05T20:33:25Z</time>
      </trkpt>
      <trkpt lat="61.212663157286" lon="14.513756645213">
        <ele>463.8</ele>
        <time>2015-02-05T20:33:30Z</time>
      </trkpt>
      <trkpt lat="61.212807493604" lon="14.513761590534">
        <ele>464</ele>
        <time>2015-02-05T20:33:37Z</time>
      </trkpt>
      <trkpt lat="61.212934730846" lon="14.513809199726">
        <ele>464.2</ele>
        <time>2015-02-05T20:33:43Z</time>
      </trkpt>
      <trkpt lat="61.213049311419" lon="14.513979603753">
        <ele>464</ele>
        <time>2015-02-05T20:33:50Z</time>
      </trkpt>
      <trkpt lat="61.213059956432" lon="14.513985554902">
        <ele>464</ele>
        <time>2015-02-05T20:33:51Z</time>
      </trkpt>
      <trkpt lat="61.213083677209" lon="14.514034086103">
        <ele>464</ele>
        <time>2015-02-05T20:33:52Z</time>
      </trkpt>
      <trkpt lat="61.213121228121" lon="14.514106002805">
        <ele>464.2</ele>
        <time>2015-02-05T20:33:55Z</time>
      </trkpt>
      <trkpt lat="61.213214853944" lon="14.514219661369">
        <ele>464.2</ele>
        <time>2015-02-05T20:34:00Z</time>
      </trkpt>
      <trkpt lat="61.213289033759" lon="14.514282022705">
        <ele>464.2</ele>
        <time>2015-02-05T20:34:04Z</time>
      </trkpt>
      <trkpt lat="61.213381905211" lon="14.51436793718">
        <ele>464.2</ele>
        <time>2015-02-05T20:34:08Z</time>
      </trkpt>
      <trkpt lat="61.213470418075" lon="14.51452384052">
        <ele>464.2</ele>
        <time>2015-02-05T20:34:13Z</time>
      </trkpt>
      <trkpt lat="61.213575275644" lon="14.514695334194">
        <ele>464.2</ele>
        <time>2015-02-05T20:34:18Z</time>
      </trkpt>
      <trkpt lat="61.213719528143" lon="14.514914520879">
        <ele>464.2</ele>
        <time>2015-02-05T20:34:25Z</time>
      </trkpt>
      <trkpt lat="61.213804017695" lon="14.515075537178">
        <ele>464.4</ele>
        <time>2015-02-05T20:34:30Z</time>
      </trkpt>
      <trkpt lat="61.213861098434" lon="14.515250383612">
        <ele>464</ele>
        <time>2015-02-05T20:34:34Z</time>
      </trkpt>
      <trkpt lat="61.2139293271" lon="14.515475437627">
        <ele>464.2</ele>
        <time>2015-02-05T20:34:39Z</time>
      </trkpt>
      <trkpt lat="61.213991856074" lon="14.515711807207">
        <ele>464</ele>
        <time>2015-02-05T20:34:44Z</time>
      </trkpt>
      <trkpt lat="61.2140466737" lon="14.51588589927">
        <ele>464</ele>
        <time>2015-02-05T20:34:49Z</time>
      </trkpt>
      <trkpt lat="61.214147340319" lon="14.516161496142">
        <ele>464</ele>
        <time>2015-02-05T20:34:55Z</time>
      </trkpt>
      <trkpt lat="61.214268291136" lon="14.516334079463">
        <ele>463.4</ele>
        <time>2015-02-05T20:35:00Z</time>
      </trkpt>
      <trkpt lat="61.21440374264" lon="14.516506495146">
        <ele>463.2</ele>
        <time>2015-02-05T20:35:05Z</time>
      </trkpt>
      <trkpt lat="61.214516646833" lon="14.516732219713">
        <ele>463</ele>
        <time>2015-02-05T20:35:10Z</time>
      </trkpt>
      <trkpt lat="61.214537685402" lon="14.516760047621">
        <ele>463</ele>
        <time>2015-02-05T20:35:11Z</time>
      </trkpt>
      <trkpt lat="61.214613709235" lon="14.516815032885">
        <ele>462.8</ele>
        <time>2015-02-05T20:35:14Z</time>
      </trkpt>
      <trkpt lat="61.214707586515" lon="14.51683808311">
        <ele>462.8</ele>
        <time>2015-02-05T20:35:18Z</time>
      </trkpt>
      <trkpt lat="61.214892742686" lon="14.516895834401">
        <ele>464.2</ele>
        <time>2015-02-05T20:35:26Z</time>
      </trkpt>
      <trkpt lat="61.214956277488" lon="14.51691100564">
        <ele>465.4</ele>
        <time>2015-02-05T20:35:30Z</time>
      </trkpt>
      <trkpt lat="61.214992738753" lon="14.516925003413">
        <ele>465.8</ele>
        <time>2015-02-05T20:35:32Z</time>
      </trkpt>
      <trkpt lat="61.215032552778" lon="14.516950652027">
        <ele>466.2</ele>
        <time>2015-02-05T20:35:37Z</time>
      </trkpt>
      <trkpt lat="61.215247716151" lon="14.517090210662">
        <ele>465.8</ele>
        <time>2015-02-05T20:37:35Z</time>
      </trkpt>
      <trkpt lat="61.215416779074" lon="14.517194565317">
        <ele>464.2</ele>
        <time>2015-02-05T20:37:40Z</time>
      </trkpt>
      <trkpt lat="61.215445026077" lon="14.517209736556">
        <ele>464.4</ele>
        <time>2015-02-05T20:37:41Z</time>
      </trkpt>
      <trkpt lat="61.215534544769" lon="14.517249550581">
        <ele>464.4</ele>
        <time>2015-02-05T20:37:47Z</time>
      </trkpt>
      <trkpt lat="61.215528425982" lon="14.517248460934">
        <ele>464.6</ele>
        <time>2015-02-05T20:37:48Z</time>
      </trkpt>
      <trkpt lat="61.21569287886" lon="14.517200265009">
        <ele>464.6</ele>
        <time>2015-02-05T20:37:59Z</time>
      </trkpt>
      <trkpt lat="61.215713917429" lon="14.517164641934">
        <ele>464.6</ele>
        <time>2015-02-05T20:38:00Z</time>
      </trkpt>
      <trkpt lat="61.215772758367" lon="14.51701242663">
        <ele>464.2</ele>
        <time>2015-02-05T20:38:03Z</time>
      </trkpt>
      <trkpt lat="61.215781475543" lon="14.516962721963">
        <ele>464.2</ele>
        <time>2015-02-05T20:38:04Z</time>
      </trkpt>
      <trkpt lat="61.215797904067" lon="14.516724843641">
        <ele>464.4</ele>
        <time>2015-02-05T20:38:08Z</time>
      </trkpt>
      <trkpt lat="61.215785331217" lon="14.516624763755">
        <ele>464.4</ele>
        <time>2015-02-05T20:38:10Z</time>
      </trkpt>
      <trkpt lat="61.215750965427" lon="14.516539352194">
        <ele>464.6</ele>
        <time>2015-02-05T20:38:12Z</time>
      </trkpt>
      <trkpt lat="61.215711905773" lon="14.516462825447">
        <ele>464.6</ele>
        <time>2015-02-05T20:38:14Z</time>
      </trkpt>
      <trkpt lat="61.215658764527" lon="14.516440026679">
        <ele>464.6</ele>
        <time>2015-02-05T20:38:16Z</time>
      </trkpt>
      <trkpt lat="61.215587434558" lon="14.516393255677">
        <ele>464.8</ele>
        <time>2015-02-05T20:38:19Z</time>
      </trkpt>
      <trkpt lat="61.215515098761" lon="14.516282027864">
        <ele>464.6</ele>
        <time>2015-02-05T20:38:23Z</time>
      </trkpt>
      <trkpt lat="61.215418036359" lon="14.515967119881">
        <ele>464.8</ele>
        <time>2015-02-05T20:38:30Z</time>
      </trkpt>
      <trkpt lat="61.21539113046" lon="14.515797721682">
        <ele>464.4</ele>
        <time>2015-02-05T20:38:33Z</time>
      </trkpt>
      <trkpt lat="61.215368583149" lon="14.515627569112">
        <ele>463.8</ele>
        <time>2015-02-05T20:38:37Z</time>
      </trkpt>
      <trkpt lat="61.215360871801" lon="14.515585491974">
        <ele>464.8</ele>
        <time>2015-02-05T20:38:40Z</time>
      </trkpt>
      <trkpt lat="61.215358608688" lon="14.515595466435">
        <ele>465.2</ele>
        <time>2015-02-05T20:38:41Z</time>
      </trkpt>
      <trkpt lat="61.215357938136" lon="14.515597226634">
        <ele>465.4</ele>
        <time>2015-02-05T20:38:42Z</time>
      </trkpt>
      <trkpt lat="61.215344443277" lon="14.515530171434">
        <ele>466</ele>
        <time>2015-02-05T20:38:44Z</time>
      </trkpt>
      <trkpt lat="61.215305132166" lon="14.515410980816">
        <ele>466</ele>
        <time>2015-02-05T20:38:46Z</time>
      </trkpt>
      <trkpt lat="61.215243357563" lon="14.515258765512">
        <ele>466</ele>
        <time>2015-02-05T20:38:49Z</time>
      </trkpt>
      <trkpt lat="61.215154677061" lon="14.514954167266">
        <ele>465</ele>
        <time>2015-02-05T20:38:52Z</time>
      </trkpt>
      <trkpt lat="61.215111007362" lon="14.514787115999">
        <ele>464</ele>
        <time>2015-02-05T20:38:54Z</time>
      </trkpt>
      <trkpt lat="61.215079156142" lon="14.51464034893">
        <ele>463.4</ele>
        <time>2015-02-05T20:38:56Z</time>
      </trkpt>
      <trkpt lat="61.215051244415" lon="14.514504226874">
        <ele>463</ele>
        <time>2015-02-05T20:38:58Z</time>
      </trkpt>
      <trkpt lat="61.215027439819" lon="14.514390819767">
        <ele>463</ele>
        <time>2015-02-05T20:39:00Z</time>
      </trkpt>
      <trkpt lat="61.215018052091" lon="14.514328206974">
        <ele>463.2</ele>
        <time>2015-02-05T20:39:01Z</time>
      </trkpt>
      <trkpt lat="61.215012771494" lon="14.514168028865">
        <ele>463.6</ele>
        <time>2015-02-05T20:39:04Z</time>
      </trkpt>
      <trkpt lat="61.215029786751" lon="14.514030900981">
        <ele>463.2</ele>
        <time>2015-02-05T20:39:06Z</time>
      </trkpt>
      <trkpt lat="61.215104637118" lon="14.513710377125">
        <ele>462.8</ele>
        <time>2015-02-05T20:39:12Z</time>
      </trkpt>
      <trkpt lat="61.215219385329" lon="14.513511474638">
        <ele>462.2</ele>
        <time>2015-02-05T20:39:18Z</time>
      </trkpt>
      <trkpt lat="61.215363302552" lon="14.513370407261">
        <ele>463</ele>
        <time>2015-02-05T20:39:24Z</time>
      </trkpt>
      <trkpt lat="61.215467741026" lon="14.513315086721">
        <ele>463.4</ele>
        <time>2015-02-05T20:39:28Z</time>
      </trkpt>
      <trkpt lat="61.215519876444" lon="14.513321540784">
        <ele>463.4</ele>
        <time>2015-02-05T20:39:30Z</time>
      </trkpt>
      <trkpt lat="61.215600845598" lon="14.513381722826">
        <ele>463</ele>
        <time>2015-02-05T20:39:33Z</time>
      </trkpt>
      <trkpt lat="61.2157481994" lon="14.513582134055">
        <ele>463</ele>
        <time>2015-02-05T20:39:39Z</time>
      </trkpt>
      <trkpt lat="61.215846016173" lon="14.513620774614">
        <ele>463</ele>
        <time>2015-02-05T20:39:43Z</time>
      </trkpt>
      <trkpt lat="61.216016252562" lon="14.5136202717">
        <ele>462.4</ele>
        <time>2015-02-05T20:39:49Z</time>
      </trkpt>
      <trkpt lat="61.216155811197" lon="14.51368816509">
        <ele>462.6</ele>
        <time>2015-02-05T20:39:54Z</time>
      </trkpt>
      <trkpt lat="61.216260501128" lon="14.513786568596">
        <ele>462.8</ele>
        <time>2015-02-05T20:39:58Z</time>
      </trkpt>
      <trkpt lat="61.21636091629" lon="14.513932413656">
        <ele>462.4</ele>
        <time>2015-02-05T20:40:03Z</time>
      </trkpt>
      <trkpt lat="61.216462085823" lon="14.514097788543">
        <ele>462.4</ele>
        <time>2015-02-05T20:40:08Z</time>
      </trkpt>
      <trkpt lat="61.216571972532" lon="14.514254278616">
        <ele>462.4</ele>
        <time>2015-02-05T20:40:13Z</time>
      </trkpt>
      <trkpt lat="61.216675572816" lon="14.514326530594">
        <ele>462.4</ele>
        <time>2015-02-05T20:40:17Z</time>
      </trkpt>
      <trkpt lat="61.216785543344" lon="14.514252769874">
        <ele>462.2</ele>
        <time>2015-02-05T20:40:22Z</time>
      </trkpt>
      <trkpt lat="61.216819070944" lon="14.514124359166">
        <ele>462.2</ele>
        <time>2015-02-05T20:40:25Z</time>
      </trkpt>
      <trkpt lat="61.216823345713" lon="14.51408295258">
        <ele>462.4</ele>
        <time>2015-02-05T20:40:26Z</time>
      </trkpt>
      <trkpt lat="61.216832984898" lon="14.513957475537">
        <ele>462.6</ele>
        <time>2015-02-05T20:40:29Z</time>
      </trkpt>
      <trkpt lat="61.21683114088" lon="14.513842559688">
        <ele>462.8</ele>
        <time>2015-02-05T20:40:31Z</time>
      </trkpt>
      <trkpt lat="61.216828123396" lon="14.513588755756">
        <ele>463</ele>
        <time>2015-02-05T20:40:35Z</time>
      </trkpt>
      <trkpt lat="61.216869446163" lon="14.513356074212">
        <ele>463</ele>
        <time>2015-02-05T20:40:39Z</time>
      </trkpt>
      <trkpt lat="61.216913115862" lon="14.513249372625">
        <ele>463.2</ele>
        <time>2015-02-05T20:40:43Z</time>
      </trkpt>
      <trkpt lat="61.216949828584" lon="14.513168990204">
        <ele>464.2</ele>
        <time>2015-02-05T20:40:46Z</time>
      </trkpt>
      <trkpt lat="61.216967514393" lon="14.513136384613">
        <ele>465.2</ele>
        <time>2015-02-05T20:40:48Z</time>
      </trkpt>
      <trkpt lat="61.216973130266" lon="14.513125571962">
        <ele>465.6</ele>
        <time>2015-02-05T20:40:49Z</time>
      </trkpt>
      <trkpt lat="61.216966843841" lon="14.51313579788">
        <ele>466.2</ele>
        <time>2015-02-05T20:40:51Z</time>
      </trkpt>
      <trkpt lat="61.217140516809" lon="14.512846370873">
        <ele>466.6</ele>
        <time>2015-02-05T20:41:12Z</time>
      </trkpt>
      <trkpt lat="61.217170272554" lon="14.512781746424">
        <ele>466.2</ele>
        <time>2015-02-05T20:41:13Z</time>
      </trkpt>
      <trkpt lat="61.217223665257" lon="14.512649228585">
        <ele>465.4</ele>
        <time>2015-02-05T20:41:15Z</time>
      </trkpt>
      <trkpt lat="61.217300694918" lon="14.512475890893">
        <ele>464.4</ele>
        <time>2015-02-05T20:41:18Z</time>
      </trkpt>
      <trkpt lat="61.217416113681" lon="14.512370446591">
        <ele>463.4</ele>
        <time>2015-02-05T20:41:22Z</time>
      </trkpt>
      <trkpt lat="61.217448467815" lon="14.512349491841">
        <ele>463.4</ele>
        <time>2015-02-05T20:41:23Z</time>
      </trkpt>
      <trkpt lat="61.217479983759" lon="14.512317556802">
        <ele>463.2</ele>
        <time>2015-02-05T20:41:24Z</time>
      </trkpt>
      <trkpt lat="61.217509488047" lon="14.512361394139">
        <ele>463.4</ele>
        <time>2015-02-05T20:41:25Z</time>
      </trkpt>
      <trkpt lat="61.217566568786" lon="14.512379666681">
        <ele>463.4</ele>
        <time>2015-02-05T20:41:27Z</time>
      </trkpt>
      <trkpt lat="61.217765387454" lon="14.512488631381">
        <ele>463.2</ele>
        <time>2015-02-05T20:41:33Z</time>
      </trkpt>
      <trkpt lat="61.217782067435" lon="14.512549567794">
        <ele>463.2</ele>
        <time>2015-02-05T20:41:34Z</time>
      </trkpt>
      <trkpt lat="61.217808638058" lon="14.512687617687">
        <ele>462.6</ele>
        <time>2015-02-05T20:41:36Z</time>
      </trkpt>
      <trkpt lat="61.217830095722" lon="14.512869504917">
        <ele>462.8</ele>
        <time>2015-02-05T20:41:39Z</time>
      </trkpt>
      <trkpt lat="61.217837471794" lon="14.512994479046">
        <ele>462.8</ele>
        <time>2015-02-05T20:41:41Z</time>
      </trkpt>
      <trkpt lat="61.217850882834" lon="14.513239984897">
        <ele>462.8</ele>
        <time>2015-02-05T20:41:46Z</time>
      </trkpt>
      <trkpt lat="61.217863204227" lon="14.513429080561">
        <ele>462.8</ele>
        <time>2015-02-05T20:41:50Z</time>
      </trkpt>
      <trkpt lat="61.217907460659" lon="14.513697720456">
        <ele>462.8</ele>
        <time>2015-02-05T20:41:56Z</time>
      </trkpt>
      <trkpt lat="61.217994213324" lon="14.513922271557">
        <ele>462.8</ele>
        <time>2015-02-05T20:42:02Z</time>
      </trkpt>
      <trkpt lat="61.218077445591" lon="14.514103236778">
        <ele>462.6</ele>
        <time>2015-02-05T20:42:08Z</time>
      </trkpt>
      <trkpt lat="61.218124970964" lon="14.514226366889">
        <ele>462.8</ele>
        <time>2015-02-05T20:42:13Z</time>
      </trkpt>
      <trkpt lat="61.218164952627" lon="14.514380426211">
        <ele>462.8</ele>
        <time>2015-02-05T20:42:17Z</time>
      </trkpt>
      <trkpt lat="61.2182208599" lon="14.514624758596">
        <ele>462.4</ele>
        <time>2015-02-05T20:42:23Z</time>
      </trkpt>
      <trkpt lat="61.218262937038" lon="14.514810836776">
        <ele>462.4</ele>
        <time>2015-02-05T20:42:27Z</time>
      </trkpt>
      <trkpt lat="61.218306020004" lon="14.515056007351">
        <ele>462.4</ele>
        <time>2015-02-05T20:42:32Z</time>
      </trkpt>
      <trkpt lat="61.218329237867" lon="14.515302770487">
        <ele>462.4</ele>
        <time>2015-02-05T20:42:37Z</time>
      </trkpt>
      <trkpt lat="61.218326388021" lon="14.515485328269">
        <ele>462.4</ele>
        <time>2015-02-05T20:42:41Z</time>
      </trkpt>
      <trkpt lat="61.218320520691" lon="14.515531596357">
        <ele>462.6</ele>
        <time>2015-02-05T20:42:42Z</time>
      </trkpt>
      <trkpt lat="61.218291603136" lon="14.515721194935">
        <ele>462.8</ele>
        <time>2015-02-05T20:42:46Z</time>
      </trkpt>
      <trkpt lat="61.218279449381" lon="14.515773917086">
        <ele>462.8</ele>
        <time>2015-02-05T20:42:47Z</time>
      </trkpt>
      <trkpt lat="61.218262853219" lon="14.515878858474">
        <ele>462.6</ele>
        <time>2015-02-05T20:42:49Z</time>
      </trkpt>
      <trkpt lat="61.218202754996" lon="14.516242213839">
        <ele>462.4</ele>
        <time>2015-02-05T20:42:56Z</time>
      </trkpt>
      <trkpt lat="61.218139387832" lon="14.516457880126">
        <ele>462.8</ele>
        <time>2015-02-05T20:43:01Z</time>
      </trkpt>
      <trkpt lat="61.218064872741" lon="14.516670696567">
        <ele>462.6</ele>
        <time>2015-02-05T20:43:06Z</time>
      </trkpt>
      <trkpt lat="61.217995805885" lon="14.516891475813">
        <ele>462.4</ele>
        <time>2015-02-05T20:43:11Z</time>
      </trkpt>
      <trkpt lat="61.217969654357" lon="14.517068250084">
        <ele>462.6</ele>
        <time>2015-02-05T20:43:15Z</time>
      </trkpt>
      <trkpt lat="61.217940569164" lon="14.517245191993">
        <ele>462.8</ele>
        <time>2015-02-05T20:43:19Z</time>
      </trkpt>
      <trkpt lat="61.217855576698" lon="14.517472006207">
        <ele>462.8</ele>
        <time>2015-02-05T20:43:24Z</time>
      </trkpt>
      <trkpt lat="61.217734122967" lon="14.517536463018">
        <ele>463</ele>
        <time>2015-02-05T20:43:29Z</time>
      </trkpt>
      <trkpt lat="61.217633540167" lon="14.517500085572">
        <ele>463.2</ele>
        <time>2015-02-05T20:43:33Z</time>
      </trkpt>
      <trkpt lat="61.217570340641" lon="14.517475191329">
        <ele>462.8</ele>
        <time>2015-02-05T20:43:36Z</time>
      </trkpt>
      <trkpt lat="61.217521390345" lon="14.517462031746">
        <ele>462.8</ele>
        <time>2015-02-05T20:43:38Z</time>
      </trkpt>
      <trkpt lat="61.21746062157" lon="14.517439149159">
        <ele>462.6</ele>
        <time>2015-02-05T20:43:41Z</time>
      </trkpt>
      <trkpt lat="61.217411084541" lon="14.517438897702">
        <ele>462.8</ele>
        <time>2015-02-05T20:43:43Z</time>
      </trkpt>
      <trkpt lat="61.217307651895" lon="14.517454907131">
        <ele>463.2</ele>
        <time>2015-02-05T20:43:47Z</time>
      </trkpt>
      <trkpt lat="61.217267586413" lon="14.517457002606">
        <ele>463.2</ele>
        <time>2015-02-05T20:43:49Z</time>
      </trkpt>
      <trkpt lat="61.217212601149" lon="14.517443004833">
        <ele>463.4</ele>
        <time>2015-02-05T20:43:51Z</time>
      </trkpt>
      <trkpt lat="61.217119059145" lon="14.517405202464">
        <ele>463.4</ele>
        <time>2015-02-05T20:43:55Z</time>
      </trkpt>
      <trkpt lat="61.217036916525" lon="14.517352145037">
        <ele>463.2</ele>
        <time>2015-02-05T20:43:59Z</time>
      </trkpt>
      <trkpt lat="61.216950080041" lon="14.517289113149">
        <ele>463.2</ele>
        <time>2015-02-05T20:44:04Z</time>
      </trkpt>
      <trkpt lat="61.216908086722" lon="14.517295651031">
        <ele>463.4</ele>
        <time>2015-02-05T20:44:06Z</time>
      </trkpt>
      <trkpt lat="61.216871374" lon="14.517323981853">
        <ele>463.8</ele>
        <time>2015-02-05T20:44:08Z</time>
      </trkpt>
      <trkpt lat="61.21684036097" lon="14.517375698176">
        <ele>464.2</ele>
        <time>2015-02-05T20:44:10Z</time>
      </trkpt>
      <trkpt lat="61.216802558601" lon="14.517499163563">
        <ele>464.2</ele>
        <time>2015-02-05T20:44:13Z</time>
      </trkpt>
      <trkpt lat="61.216786632991" lon="14.517568314238">
        <ele>463.8</ele>
        <time>2015-02-05T20:44:15Z</time>
      </trkpt>
      <trkpt lat="61.216777664358" lon="14.517659090215">
        <ele>463.8</ele>
        <time>2015-02-05T20:44:17Z</time>
      </trkpt>
      <trkpt lat="61.216765175327" lon="14.51777098858">
        <ele>463.8</ele>
        <time>2015-02-05T20:44:19Z</time>
      </trkpt>
      <trkpt lat="61.216750423183" lon="14.517956563846">
        <ele>463.4</ele>
        <time>2015-02-05T20:44:23Z</time>
      </trkpt>
      <trkpt lat="61.216737179781" lon="14.518197459652">
        <ele>463.6</ele>
        <time>2015-02-05T20:44:28Z</time>
      </trkpt>
      <trkpt lat="61.216741873645" lon="14.518403486754">
        <ele>463.6</ele>
        <time>2015-02-05T20:44:33Z</time>
      </trkpt>
      <trkpt lat="61.216768779544" lon="14.518524018476">
        <ele>463.8</ele>
        <time>2015-02-05T20:44:37Z</time>
      </trkpt>
      <trkpt lat="61.216817059288" lon="14.518681849653">
        <ele>463.8</ele>
        <time>2015-02-05T20:44:42Z</time>
      </trkpt>
      <trkpt lat="61.216867350688" lon="14.518897767397">
        <ele>464</ele>
        <time>2015-02-05T20:44:48Z</time>
      </trkpt>
      <trkpt lat="61.216867769783" lon="14.519131622407">
        <ele>464.4</ele>
        <time>2015-02-05T20:44:54Z</time>
      </trkpt>
      <trkpt lat="61.216844216644" lon="14.519244191324">
        <ele>464.4</ele>
        <time>2015-02-05T20:44:58Z</time>
      </trkpt>
      <trkpt lat="61.216822926618" lon="14.519338571518">
        <ele>464.4</ele>
        <time>2015-02-05T20:45:01Z</time>
      </trkpt>
      <trkpt lat="61.216799205841" lon="14.519437897033">
        <ele>464.4</ele>
        <time>2015-02-05T20:45:03Z</time>
      </trkpt>
      <trkpt lat="61.216768444268" lon="14.519595225296">
        <ele>464.2</ele>
        <time>2015-02-05T20:45:07Z</time>
      </trkpt>
      <trkpt lat="61.216717901411" lon="14.519798486371">
        <ele>464.2</ele>
        <time>2015-02-05T20:45:12Z</time>
      </trkpt>
      <trkpt lat="61.216661072129" lon="14.519943660879">
        <ele>464.2</ele>
        <time>2015-02-05T20:45:17Z</time>
      </trkpt>
      <trkpt lat="61.216628131262" lon="14.52009277488">
        <ele>465.4</ele>
        <time>2015-02-05T20:45:22Z</time>
      </trkpt>
      <trkpt lat="61.216606003046" lon="14.520214480068">
        <ele>465.6</ele>
        <time>2015-02-05T20:45:26Z</time>
      </trkpt>
      <trkpt lat="61.21658471302" lon="14.520326713709">
        <ele>465.6</ele>
        <time>2015-02-05T20:45:31Z</time>
      </trkpt>
      <trkpt lat="61.21656459646" lon="14.520392511624">
        <ele>466.2</ele>
        <time>2015-02-05T20:45:38Z</time>
      </trkpt>
      <trkpt lat="61.216419086676" lon="14.520695182033">
        <ele>465.4</ele>
        <time>2015-02-05T20:46:51Z</time>
      </trkpt>
      <trkpt lat="61.216393689519" lon="14.520762153414">
        <ele>465.4</ele>
        <time>2015-02-05T20:46:53Z</time>
      </trkpt>
      <trkpt lat="61.216368040905" lon="14.520832980469">
        <ele>465.4</ele>
        <time>2015-02-05T20:46:55Z</time>
      </trkpt>
      <trkpt lat="61.216338871893" lon="14.520915206908">
        <ele>465.6</ele>
        <time>2015-02-05T20:46:57Z</time>
      </trkpt>
      <trkpt lat="61.216251029581" lon="14.521126011693">
        <ele>466</ele>
        <time>2015-02-05T20:47:01Z</time>
      </trkpt>
      <trkpt lat="61.21614466327" lon="14.521349808423">
        <ele>466</ele>
        <time>2015-02-05T20:47:06Z</time>
      </trkpt>
      <trkpt lat="61.216102418494" lon="14.521443182789">
        <ele>466.6</ele>
        <time>2015-02-05T20:47:09Z</time>
      </trkpt>
      <trkpt lat="61.216097556992" lon="14.521445697359">
        <ele>466.8</ele>
        <time>2015-02-05T20:47:10Z</time>
      </trkpt>
      <trkpt lat="61.216097808449" lon="14.521446367911">
        <ele>467</ele>
        <time>2015-02-05T20:47:12Z</time>
      </trkpt>
      <trkpt lat="61.215837718092" lon="14.521892033534">
        <ele>466.6</ele>
        <time>2015-02-05T20:47:38Z</time>
      </trkpt>
      <trkpt lat="61.215731016505" lon="14.522076938248">
        <ele>464.8</ele>
        <time>2015-02-05T20:47:40Z</time>
      </trkpt>
      <trkpt lat="61.215691873032" lon="14.522170815528">
        <ele>463.4</ele>
        <time>2015-02-05T20:47:41Z</time>
      </trkpt>
      <trkpt lat="61.215664715676" lon="14.522269051396">
        <ele>462.4</ele>
        <time>2015-02-05T20:47:42Z</time>
      </trkpt>
      <trkpt lat="61.215649628256" lon="14.522360497925">
        <ele>461.4</ele>
        <time>2015-02-05T20:47:43Z</time>
      </trkpt>
      <trkpt lat="61.215644766754" lon="14.522508187003">
        <ele>460.8</ele>
        <time>2015-02-05T20:47:45Z</time>
      </trkpt>
      <trkpt lat="61.215659435079" lon="14.522677333745">
        <ele>460.8</ele>
        <time>2015-02-05T20:47:49Z</time>
      </trkpt>
      <trkpt lat="61.215658010156" lon="14.522672136967">
        <ele>461.2</ele>
        <time>2015-02-05T20:47:50Z</time>
      </trkpt>
      <trkpt lat="61.215704110606" lon="14.52300129418">
        <ele>461</ele>
        <time>2015-02-05T20:48:14Z</time>
      </trkpt>
      <trkpt lat="61.215711989592" lon="14.523048316639">
        <ele>460.8</ele>
        <time>2015-02-05T20:48:15Z</time>
      </trkpt>
      <trkpt lat="61.215749791961" lon="14.523351070867">
        <ele>460.6</ele>
        <time>2015-02-05T20:48:20Z</time>
      </trkpt>
      <trkpt lat="61.2157481994" lon="14.523655585294">
        <ele>461</ele>
        <time>2015-02-05T20:48:25Z</time>
      </trkpt>
      <trkpt lat="61.215746858296" lon="14.52370202102">
        <ele>461</ele>
        <time>2015-02-05T20:48:26Z</time>
      </trkpt>
      <trkpt lat="61.215735878007" lon="14.523960434997">
        <ele>460.8</ele>
        <time>2015-02-05T20:48:31Z</time>
      </trkpt>
      <trkpt lat="61.215677204707" lon="14.524236199507">
        <ele>461</ele>
        <time>2015-02-05T20:48:36Z</time>
      </trkpt>
      <trkpt lat="61.215591960784" lon="14.524434515261">
        <ele>460.8</ele>
        <time>2015-02-05T20:48:40Z</time>
      </trkpt>
      <trkpt lat="61.215562707953" lon="14.524470222155">
        <ele>460.8</ele>
        <time>2015-02-05T20:48:41Z</time>
      </trkpt>
      <trkpt lat="61.215509063793" lon="14.524521938478">
        <ele>460.8</ele>
        <time>2015-02-05T20:48:43Z</time>
      </trkpt>
      <trkpt lat="61.215446786276" lon="14.52455446025">
        <ele>460.8</ele>
        <time>2015-02-05T20:48:45Z</time>
      </trkpt>
      <trkpt lat="61.215399428541" lon="14.52458631147">
        <ele>460.8</ele>
        <time>2015-02-05T20:48:47Z</time>
      </trkpt>
      <trkpt lat="61.215277890991" lon="14.524609110238">
        <ele>461</ele>
        <time>2015-02-05T20:48:52Z</time>
      </trkpt>
      <trkpt lat="61.2151530845" lon="14.524668286452">
        <ele>461</ele>
        <time>2015-02-05T20:48:57Z</time>
      </trkpt>
      <trkpt lat="61.215028864742" lon="14.524726708295">
        <ele>461</ele>
        <time>2015-02-05T20:49:02Z</time>
      </trkpt>
      <trkpt lat="61.214917888386" lon="14.524744477923">
        <ele>460.6</ele>
        <time>2015-02-05T20:49:06Z</time>
      </trkpt>
      <trkpt lat="61.214836583956" lon="14.524724026087">
        <ele>461.2</ele>
        <time>2015-02-05T20:49:11Z</time>
      </trkpt>
      <trkpt lat="61.21478847185" lon="14.524697204007">
        <ele>462.2</ele>
        <time>2015-02-05T20:49:15Z</time>
      </trkpt>
      <trkpt lat="61.214766846548" lon="14.52468270332">
        <ele>462.8</ele>
        <time>2015-02-05T20:49:17Z</time>
      </trkpt>
      <trkpt lat="61.214753686965" lon="14.524678344732">
        <ele>463.2</ele>
        <time>2015-02-05T20:49:18Z</time>
      </trkpt>
      <trkpt lat="61.214735162966" lon="14.524667196805">
        <ele>463.8</ele>
        <time>2015-02-05T20:49:20Z</time>
      </trkpt>
      <trkpt lat="61.214725020867" lon="14.524664011683">
        <ele>463.8</ele>
        <time>2015-02-05T20:49:21Z</time>
      </trkpt>
      <trkpt lat="61.214684284833" lon="14.524650433005">
        <ele>464.2</ele>
        <time>2015-02-05T20:49:24Z</time>
      </trkpt>
      <trkpt lat="61.214587222431" lon="14.524622605097">
        <ele>465</ele>
        <time>2015-02-05T20:49:30Z</time>
      </trkpt>
      <trkpt lat="61.214575403952" lon="14.524622856554">
        <ele>465.2</ele>
        <time>2015-02-05T20:49:31Z</time>
      </trkpt>
      <trkpt lat="61.21454036761" lon="14.524615815758">
        <ele>465.2</ele>
        <time>2015-02-05T20:49:34Z</time>
      </trkpt>
      <trkpt lat="61.21444481395" lon="14.524599135777">
        <ele>465.2</ele>
        <time>2015-02-05T20:49:37Z</time>
      </trkpt>
      <trkpt lat="61.214274409923" lon="14.524660407466">
        <ele>463.8</ele>
        <time>2015-02-05T20:49:40Z</time>
      </trkpt>
      <trkpt lat="61.214222609781" lon="14.524724864277">
        <ele>463.2</ele>
        <time>2015-02-05T20:49:41Z</time>
      </trkpt>
      <trkpt lat="61.2141807841" lon="14.524796613341">
        <ele>462.6</ele>
        <time>2015-02-05T20:49:42Z</time>
      </trkpt>
      <trkpt lat="61.214111046692" lon="14.524933825044">
        <ele>461.4</ele>
        <time>2015-02-05T20:49:44Z</time>
      </trkpt>
      <trkpt lat="61.214053714496" lon="14.525036503319">
        <ele>460.8</ele>
        <time>2015-02-05T20:49:46Z</time>
      </trkpt>
      <trkpt lat="61.213976433378" lon="14.525221827128">
        <ele>460.6</ele>
        <time>2015-02-05T20:49:50Z</time>
      </trkpt>
      <trkpt lat="61.213951036221" lon="14.525272202347">
        <ele>461</ele>
        <time>2015-02-05T20:49:52Z</time>
      </trkpt>
      <trkpt lat="61.213923795046" lon="14.52532810962">
        <ele>461.4</ele>
        <time>2015-02-05T20:49:54Z</time>
      </trkpt>
      <trkpt lat="61.213869647972" lon="14.525449060437">
        <ele>462</ele>
        <time>2015-02-05T20:49:59Z</time>
      </trkpt>
      <trkpt lat="61.213836874743" lon="14.52557872843">
        <ele>461.8</ele>
        <time>2015-02-05T20:50:02Z</time>
      </trkpt>
      <trkpt lat="61.213777363253" lon="14.525770506302">
        <ele>461.8</ele>
        <time>2015-02-05T20:50:06Z</time>
      </trkpt>
      <trkpt lat="61.213701004144" lon="14.525994135394">
        <ele>461.4</ele>
        <time>2015-02-05T20:50:11Z</time>
      </trkpt>
      <trkpt lat="61.213588602865" lon="14.526267636791">
        <ele>461</ele>
        <time>2015-02-05T20:50:16Z</time>
      </trkpt>
      <trkpt lat="61.213491875739" lon="14.526437286447">
        <ele>461</ele>
        <time>2015-02-05T20:50:20Z</time>
      </trkpt>
      <trkpt lat="61.213372852759" lon="14.52658874738">
        <ele>460.6</ele>
        <time>2015-02-05T20:50:25Z</time>
      </trkpt>
      <trkpt lat="61.213285764818" lon="14.526691174198">
        <ele>460.8</ele>
        <time>2015-02-05T20:50:29Z</time>
      </trkpt>
      <trkpt lat="61.213261373489" lon="14.52671028493">
        <ele>460.6</ele>
        <time>2015-02-05T20:50:30Z</time>
      </trkpt>
      <trkpt lat="61.213208651338" lon="14.52673040149">
        <ele>460.8</ele>
        <time>2015-02-05T20:50:32Z</time>
      </trkpt>
      <trkpt lat="61.21318417619" lon="14.526736687915">
        <ele>460.6</ele>
        <time>2015-02-05T20:50:33Z</time>
      </trkpt>
      <trkpt lat="61.213121395759" lon="14.526760324873">
        <ele>460.6</ele>
        <time>2015-02-05T20:50:35Z</time>
      </trkpt>
      <trkpt lat="61.212997343639" lon="14.52680667678">
        <ele>460.6</ele>
        <time>2015-02-05T20:50:39Z</time>
      </trkpt>
      <trkpt lat="61.212866083085" lon="14.526838947095">
        <ele>461.4</ele>
        <time>2015-02-05T20:50:43Z</time>
      </trkpt>
      <trkpt lat="61.212810175812" lon="14.526858141646">
        <ele>462.4</ele>
        <time>2015-02-05T20:50:45Z</time>
      </trkpt>
      <trkpt lat="61.212731972685" lon="14.526892255979">
        <ele>463.4</ele>
        <time>2015-02-05T20:50:48Z</time>
      </trkpt>
      <trkpt lat="61.212642789269" lon="14.526888987038">
        <ele>464.4</ele>
        <time>2015-02-05T20:50:53Z</time>
      </trkpt>
      <trkpt lat="61.21263599993" lon="14.526890579599">
        <ele>464.6</ele>
        <time>2015-02-05T20:50:54Z</time>
      </trkpt>
      <trkpt lat="61.21263348536" lon="14.526884796088">
        <ele>464.6</ele>
        <time>2015-02-05T20:50:55Z</time>
      </trkpt>
      <trkpt lat="61.212633233903" lon="14.526885634278">
        <ele>464.8</ele>
        <time>2015-02-05T20:50:56Z</time>
      </trkpt>
      <trkpt lat="61.212401055273" lon="14.526922430819">
        <ele>464.4</ele>
        <time>2015-02-05T20:51:15Z</time>
      </trkpt>
      <trkpt lat="61.212289743641" lon="14.527008512932">
        <ele>462.6</ele>
        <time>2015-02-05T20:51:17Z</time>
      </trkpt>
      <trkpt lat="61.212146329332" lon="14.527135079622">
        <ele>461</ele>
        <time>2015-02-05T20:51:20Z</time>
      </trkpt>
      <trkpt lat="61.212109700429" lon="14.527170618878">
        <ele>460.6</ele>
        <time>2015-02-05T20:51:21Z</time>
      </trkpt>
      <trkpt lat="61.212040717392" lon="14.527248654367">
        <ele>460.4</ele>
        <time>2015-02-05T20:51:23Z</time>
      </trkpt>
      <trkpt lat="61.211984642481" lon="14.527336999593">
        <ele>460.8</ele>
        <time>2015-02-05T20:51:25Z</time>
      </trkpt>
      <trkpt lat="61.211876683609" lon="14.527467421957">
        <ele>461.2</ele>
        <time>2015-02-05T20:51:29Z</time>
      </trkpt>
      <trkpt lat="61.211846927864" lon="14.527493741123">
        <ele>461.2</ele>
        <time>2015-02-05T20:51:30Z</time>
      </trkpt>
      <trkpt lat="61.211762773588" lon="14.527573955906">
        <ele>461.4</ele>
        <time>2015-02-05T20:51:34Z</time>
      </trkpt>
      <trkpt lat="61.211707955962" lon="14.52762977936">
        <ele>461.6</ele>
        <time>2015-02-05T20:51:37Z</time>
      </trkpt>
      <trkpt lat="61.211672332887" lon="14.527667833186">
        <ele>461.6</ele>
        <time>2015-02-05T20:51:39Z</time>
      </trkpt>
      <trkpt lat="61.211564290196" lon="14.527800434844">
        <ele>461.6</ele>
        <time>2015-02-05T20:51:44Z</time>
      </trkpt>
      <trkpt lat="61.211507712371" lon="14.52785776704">
        <ele>461.8</ele>
        <time>2015-02-05T20:51:46Z</time>
      </trkpt>
      <trkpt lat="61.211484075413" lon="14.527895234133">
        <ele>461.8</ele>
        <time>2015-02-05T20:51:47Z</time>
      </trkpt>
      <trkpt lat="61.211374104885" lon="14.528054574052">
        <ele>461.8</ele>
        <time>2015-02-05T20:51:52Z</time>
      </trkpt>
      <trkpt lat="61.211252232059" lon="14.528176446878">
        <ele>462.2</ele>
        <time>2015-02-05T20:51:57Z</time>
      </trkpt>
      <trkpt lat="61.211181572642" lon="14.528250207598">
        <ele>462.8</ele>
        <time>2015-02-05T20:52:00Z</time>
      </trkpt>
      <trkpt lat="61.211164725023" lon="14.528263953914">
        <ele>463</ele>
        <time>2015-02-05T20:52:01Z</time>
      </trkpt>
      <trkpt lat="61.211121055324" lon="14.528304354672">
        <ele>463.4</ele>
        <time>2015-02-05T20:52:03Z</time>
      </trkpt>
      <trkpt lat="61.211087695362" lon="14.528343162869">
        <ele>464</ele>
        <time>2015-02-05T20:52:05Z</time>
      </trkpt>
      <trkpt lat="61.211026926587" lon="14.528385156188">
        <ele>464.4</ele>
        <time>2015-02-05T20:52:07Z</time>
      </trkpt>
      <trkpt lat="61.21101661685" lon="14.528394460097">
        <ele>464.4</ele>
        <time>2015-02-05T20:52:08Z</time>
      </trkpt>
      <trkpt lat="61.211008486407" lon="14.528400327427">
        <ele>464.6</ele>
        <time>2015-02-05T20:52:09Z</time>
      </trkpt>
      <trkpt lat="61.210964732889" lon="14.528433771208">
        <ele>465.2</ele>
        <time>2015-02-05T20:52:12Z</time>
      </trkpt>
      <trkpt lat="61.210896001309" lon="14.528483392056">
        <ele>465.2</ele>
        <time>2015-02-05T20:52:16Z</time>
      </trkpt>
      <trkpt lat="61.210802962219" lon="14.528573916576">
        <ele>465.2</ele>
        <time>2015-02-05T20:52:22Z</time>
      </trkpt>
      <trkpt lat="61.210762477642" lon="14.52860291795">
        <ele>465.8</ele>
        <time>2015-02-05T20:52:25Z</time>
      </trkpt>
      <trkpt lat="61.210749401878" lon="14.528609288194">
        <ele>466.2</ele>
        <time>2015-02-05T20:52:27Z</time>
      </trkpt>
      <trkpt lat="61.210751329715" lon="14.528608869099">
        <ele>466.4</ele>
        <time>2015-02-05T20:52:29Z</time>
      </trkpt>
      <trkpt lat="61.210605149379" lon="14.528701572913">
        <ele>466.2</ele>
        <time>2015-02-05T20:52:50Z</time>
      </trkpt>
      <trkpt lat="61.210579752222" lon="14.528725628966">
        <ele>466</ele>
        <time>2015-02-05T20:52:51Z</time>
      </trkpt>
      <trkpt lat="61.210396942983" lon="14.528903073789">
        <ele>464.6</ele>
        <time>2015-02-05T20:52:56Z</time>
      </trkpt>
      <trkpt lat="61.210337263855" lon="14.52897423612">
        <ele>464</ele>
        <time>2015-02-05T20:52:58Z</time>
      </trkpt>
      <trkpt lat="61.210312872526" lon="14.529024946615">
        <ele>464</ele>
        <time>2015-02-05T20:52:59Z</time>
      </trkpt>
      <trkpt lat="61.210245817326" lon="14.529123601578">
        <ele>463.6</ele>
        <time>2015-02-05T20:53:01Z</time>
      </trkpt>
      <trkpt lat="61.210215474848" lon="14.529184957086">
        <ele>463.4</ele>
        <time>2015-02-05T20:53:02Z</time>
      </trkpt>
      <trkpt lat="61.21017926504" lon="14.529397605889">
        <ele>463</ele>
        <time>2015-02-05T20:53:06Z</time>
      </trkpt>
      <trkpt lat="61.21018094142" lon="14.529439096294">
        <ele>463</ele>
        <time>2015-02-05T20:53:07Z</time>
      </trkpt>
      <trkpt lat="61.210200135971" lon="14.529558119274">
        <ele>463</ele>
        <time>2015-02-05T20:53:11Z</time>
      </trkpt>
      <trkpt lat="61.210225533128" lon="14.529705305438">
        <ele>463.2</ele>
        <time>2015-02-05T20:53:15Z</time>
      </trkpt>
      <trkpt lat="61.210243470394" lon="14.529887527944">
        <ele>463.6</ele>
        <time>2015-02-05T20:53:20Z</time>
      </trkpt>
      <trkpt lat="61.210255707968" lon="14.529941339742">
        <ele>463.6</ele>
        <time>2015-02-05T20:53:23Z</time>
      </trkpt>
      <trkpt lat="61.210260653289" lon="14.529965395795">
        <ele>463.6</ele>
        <time>2015-02-05T20:53:26Z</time>
      </trkpt>
      <trkpt lat="61.210315973829" lon="14.530283153624">
        <ele>463.6</ele>
        <time>2015-02-05T20:53:49Z</time>
      </trkpt>
      <trkpt lat="61.210322344073" lon="14.530325063124">
        <ele>463.6</ele>
        <time>2015-02-05T20:53:50Z</time>
      </trkpt>
      <trkpt lat="61.210333408181" lon="14.530350376462">
        <ele>463.6</ele>
        <time>2015-02-05T20:53:51Z</time>
      </trkpt>
      <trkpt lat="61.210331312706" lon="14.530453054737">
        <ele>463.8</ele>
        <time>2015-02-05T20:53:53Z</time>
      </trkpt>
      <trkpt lat="61.21031924277" lon="14.530687580299">
        <ele>464</ele>
        <time>2015-02-05T20:53:58Z</time>
      </trkpt>
      <trkpt lat="61.21032259553" lon="14.530879609628">
        <ele>464.2</ele>
        <time>2015-02-05T20:54:02Z</time>
      </trkpt>
      <trkpt lat="61.210347070678" lon="14.531143974754">
        <ele>464.2</ele>
        <time>2015-02-05T20:54:07Z</time>
      </trkpt>
      <trkpt lat="61.210443713985" lon="14.531870098751">
        <ele>463.6</ele>
        <time>2015-02-05T20:54:17Z</time>
      </trkpt>
      <trkpt lat="61.21046508783" lon="14.532231023365">
        <ele>463.6</ele>
        <time>2015-02-05T20:54:22Z</time>
      </trkpt>
      <trkpt lat="61.210488724788" lon="14.532510224454">
        <ele>464.2</ele>
        <time>2015-02-05T20:54:27Z</time>
      </trkpt>
      <trkpt lat="61.210513535212" lon="14.532765788585">
        <ele>464.4</ele>
        <time>2015-02-05T20:54:33Z</time>
      </trkpt>
      <trkpt lat="61.210545218794" lon="14.533094526703">
        <ele>463.8</ele>
        <time>2015-02-05T20:54:40Z</time>
      </trkpt>
      <trkpt lat="61.21056315606" lon="14.533267948214">
        <ele>463.6</ele>
        <time>2015-02-05T20:54:44Z</time>
      </trkpt>
      <trkpt lat="61.210572459969" lon="14.533400801329">
        <ele>463.4</ele>
        <time>2015-02-05T20:54:47Z</time>
      </trkpt>
      <trkpt lat="61.21059752185" lon="14.533676817296">
        <ele>463</ele>
        <time>2015-02-05T20:54:52Z</time>
      </trkpt>
      <trkpt lat="61.210619733885" lon="14.534042854869">
        <ele>462.4</ele>
        <time>2015-02-05T20:54:57Z</time>
      </trkpt>
      <trkpt lat="61.210633480201" lon="14.534247457048">
        <ele>461.8</ele>
        <time>2015-02-05T20:55:00Z</time>
      </trkpt>
      <trkpt lat="61.21064697506" lon="14.534401600189">
        <ele>461.4</ele>
        <time>2015-02-05T20:55:02Z</time>
      </trkpt>
      <trkpt lat="61.210666756344" lon="14.534626821842">
        <ele>461.2</ele>
        <time>2015-02-05T20:55:05Z</time>
      </trkpt>
      <trkpt lat="61.210699194297" lon="14.535005264627">
        <ele>460.8</ele>
        <time>2015-02-05T20:55:10Z</time>
      </trkpt>
      <trkpt lat="61.210720651961" lon="14.535089251265">
        <ele>460.6</ele>
        <time>2015-02-05T20:55:11Z</time>
      </trkpt>
      <trkpt lat="61.210732135164" lon="14.535190336979">
        <ele>460.4</ele>
        <time>2015-02-05T20:55:12Z</time>
      </trkpt>
      <trkpt lat="61.210773038836" lon="14.535512788672">
        <ele>459.4</ele>
        <time>2015-02-05T20:55:16Z</time>
      </trkpt>
      <trkpt lat="61.210780414908" lon="14.535691406961">
        <ele>459.4</ele>
        <time>2015-02-05T20:55:19Z</time>
      </trkpt>
      <trkpt lat="61.210787539523" lon="14.535793414684">
        <ele>459.4</ele>
        <time>2015-02-05T20:55:21Z</time>
      </trkpt>
      <trkpt lat="61.210814026327" lon="14.536014445387">
        <ele>459.2</ele>
        <time>2015-02-05T20:55:25Z</time>
      </trkpt>
      <trkpt lat="61.210837998561" lon="14.536344692247">
        <ele>458.4</ele>
        <time>2015-02-05T20:55:31Z</time>
      </trkpt>
      <trkpt lat="61.210843865891" lon="14.536438737165">
        <ele>458.4</ele>
        <time>2015-02-05T20:55:33Z</time>
      </trkpt>
      <trkpt lat="61.210853337438" lon="14.536663539723">
        <ele>457.6</ele>
        <time>2015-02-05T20:55:38Z</time>
      </trkpt>
      <trkpt lat="61.210854678542" lon="14.536718441168">
        <ele>457.2</ele>
        <time>2015-02-05T20:55:40Z</time>
      </trkpt>
      <trkpt lat="61.210864150089" lon="14.536969981987">
        <ele>456.4</ele>
        <time>2015-02-05T20:55:46Z</time>
      </trkpt>
      <trkpt lat="61.210873789274" lon="14.537013484048">
        <ele>456</ele>
        <time>2015-02-05T20:55:47Z</time>
      </trkpt>
      <trkpt lat="61.210887787047" lon="14.53702924202">
        <ele>455.4</ele>
        <time>2015-02-05T20:55:49Z</time>
      </trkpt>
      <trkpt lat="61.210882338812" lon="14.537027733278">
        <ele>455.4</ele>
        <time>2015-02-05T20:55:50Z</time>
      </trkpt>
      <trkpt lat="61.210894492567" lon="14.537048436571">
        <ele>455.2</ele>
        <time>2015-02-05T20:55:52Z</time>
      </trkpt>
      <trkpt lat="61.210935228601" lon="14.537121694377">
        <ele>455.4</ele>
        <time>2015-02-05T20:55:56Z</time>
      </trkpt>
      <trkpt lat="61.210944616329" lon="14.537185732093">
        <ele>455</ele>
        <time>2015-02-05T20:56:00Z</time>
      </trkpt>
      <trkpt lat="61.210950148383" lon="14.537215906933">
        <ele>455.2</ele>
        <time>2015-02-05T20:56:03Z</time>
      </trkpt>
      <trkpt lat="61.210964900527" lon="14.537290924938">
        <ele>455.2</ele>
        <time>2015-02-05T20:56:05Z</time>
      </trkpt>
      <trkpt lat="61.210975713178" lon="14.537480272059">
        <ele>454.6</ele>
        <time>2015-02-05T20:56:09Z</time>
      </trkpt>
      <trkpt lat="61.210964397613" lon="14.537694513423">
        <ele>454.2</ele>
        <time>2015-02-05T20:56:14Z</time>
      </trkpt>
      <trkpt lat="61.210943861958" lon="14.53780456777">
        <ele>454.6</ele>
        <time>2015-02-05T20:56:19Z</time>
      </trkpt>
      <trkpt lat="61.210920560276" lon="14.53793700179">
        <ele>454.8</ele>
        <time>2015-02-05T20:56:23Z</time>
      </trkpt>
      <trkpt lat="61.210885440115" lon="14.538143615625">
        <ele>454.6</ele>
        <time>2015-02-05T20:56:27Z</time>
      </trkpt>
      <trkpt lat="61.210853672714" lon="14.538273870351">
        <ele>454.6</ele>
        <time>2015-02-05T20:56:31Z</time>
      </trkpt>
      <trkpt lat="61.210823414055" lon="14.538397671014">
        <ele>455</ele>
        <time>2015-02-05T20:56:35Z</time>
      </trkpt>
      <trkpt lat="61.210778738528" lon="14.538568494136">
        <ele>455.2</ele>
        <time>2015-02-05T20:56:39Z</time>
      </trkpt>
      <trkpt lat="61.210744540376" lon="14.538643093046">
        <ele>455.8</ele>
        <time>2015-02-05T20:56:44Z</time>
      </trkpt>
      <trkpt lat="61.210723837083" lon="14.538654240973">
        <ele>456</ele>
        <time>2015-02-05T20:56:46Z</time>
      </trkpt>
      <trkpt lat="61.210721154875" lon="14.538657509914">
        <ele>456.2</ele>
        <time>2015-02-05T20:56:47Z</time>
      </trkpt>
      <trkpt lat="61.210724842911" lon="14.538653486602">
        <ele>456.2</ele>
        <time>2015-02-05T20:56:49Z</time>
      </trkpt>
      <trkpt lat="61.210583691715" lon="14.538761026379">
        <ele>455.8</ele>
        <time>2015-02-05T20:57:06Z</time>
      </trkpt>
      <trkpt lat="61.210537758903" lon="14.538794386341">
        <ele>455.6</ele>
        <time>2015-02-05T20:57:08Z</time>
      </trkpt>
      <trkpt lat="61.210430302945" lon="14.538890945829">
        <ele>455.4</ele>
        <time>2015-02-05T20:57:13Z</time>
      </trkpt>
      <trkpt lat="61.210395266603" lon="14.538908631638">
        <ele>455.4</ele>
        <time>2015-02-05T20:57:14Z</time>
      </trkpt>
      <trkpt lat="61.210320667693" lon="14.538935369899">
        <ele>455.2</ele>
        <time>2015-02-05T20:57:17Z</time>
      </trkpt>
      <trkpt lat="61.210299880581" lon="14.538934866985">
        <ele>455</ele>
        <time>2015-02-05T20:57:18Z</time>
      </trkpt>
      <trkpt lat="61.210216899771" lon="14.538910643294">
        <ele>455</ele>
        <time>2015-02-05T20:57:21Z</time>
      </trkpt>
      <trkpt lat="61.210127045803" lon="14.538882312472">
        <ele>455.2</ele>
        <time>2015-02-05T20:57:24Z</time>
      </trkpt>
      <trkpt lat="61.209947002591" lon="14.538796900911">
        <ele>455</ele>
        <time>2015-02-05T20:57:29Z</time>
      </trkpt>
      <trkpt lat="61.209767797569" lon="14.538737640878">
        <ele>455.2</ele>
        <time>2015-02-05T20:57:34Z</time>
      </trkpt>
      <trkpt lat="61.209595214248" lon="14.538650469118">
        <ele>455</ele>
        <time>2015-02-05T20:57:39Z</time>
      </trkpt>
      <trkpt lat="61.209425816049" lon="14.538530021215">
        <ele>454.8</ele>
        <time>2015-02-05T20:57:44Z</time>
      </trkpt>
      <trkpt lat="61.209278965161" lon="14.538407310199">
        <ele>454.4</ele>
        <time>2015-02-05T20:57:48Z</time>
      </trkpt>
      <trkpt lat="61.20917259885" lon="14.538320222258">
        <ele>454.2</ele>
        <time>2015-02-05T20:57:51Z</time>
      </trkpt>
      <trkpt lat="61.209127420409" lon="14.538266242822">
        <ele>454</ele>
        <time>2015-02-05T20:57:52Z</time>
      </trkpt>
      <trkpt lat="61.208978306408" lon="14.538098018089">
        <ele>453.8</ele>
        <time>2015-02-05T20:57:56Z</time>
      </trkpt>
      <trkpt lat="61.208856936496" lon="14.537995591271">
        <ele>453.2</ele>
        <time>2015-02-05T20:58:00Z</time>
      </trkpt>
      <trkpt lat="61.208769094184" lon="14.537974971797">
        <ele>452.8</ele>
        <time>2015-02-05T20:58:03Z</time>
      </trkpt>
      <trkpt lat="61.208731543272" lon="14.53797555853">
        <ele>452.8</ele>
        <time>2015-02-05T20:58:04Z</time>
      </trkpt>
      <trkpt lat="61.20864537734" lon="14.538017216573">
        <ele>452.8</ele>
        <time>2015-02-05T20:58:08Z</time>
      </trkpt>
      <trkpt lat="61.208616124509" lon="14.538102209039">
        <ele>452.4</ele>
        <time>2015-02-05T20:58:10Z</time>
      </trkpt>
      <trkpt lat="61.208648478643" lon="14.538217711621">
        <ele>452.2</ele>
        <time>2015-02-05T20:58:12Z</time>
      </trkpt>
      <trkpt lat="61.208678234388" lon="14.538266159003">
        <ele>451.8</ele>
        <time>2015-02-05T20:58:14Z</time>
      </trkpt>
      <trkpt lat="61.208692483618" lon="14.538281916975">
        <ele>451.8</ele>
        <time>2015-02-05T20:58:16Z</time>
      </trkpt>
      <trkpt lat="61.208686364831" lon="14.538275127636">
        <ele>452</ele>
        <time>2015-02-05T20:58:17Z</time>
      </trkpt>
      <trkpt lat="61.208765573786" lon="14.538477885797">
        <ele>452.8</ele>
        <time>2015-02-05T20:58:47Z</time>
      </trkpt>
      <trkpt lat="61.208775548247" lon="14.538490710104">
        <ele>453</ele>
        <time>2015-02-05T20:58:48Z</time>
      </trkpt>
      <trkpt lat="61.208833550995" lon="14.538693132989">
        <ele>454</ele>
        <time>2015-02-05T20:58:54Z</time>
      </trkpt>
      <trkpt lat="61.208850230976" lon="14.53886739269">
        <ele>454.6</ele>
        <time>2015-02-05T20:58:59Z</time>
      </trkpt>
      <trkpt lat="61.20884738113" lon="14.539065456987">
        <ele>455.2</ele>
        <time>2015-02-05T20:59:03Z</time>
      </trkpt>
      <trkpt lat="61.20884486656" lon="14.539112730903">
        <ele>455.2</ele>
        <time>2015-02-05T20:59:04Z</time>
      </trkpt>
      <trkpt lat="61.208844531284" lon="14.539373827088">
        <ele>455</ele>
        <time>2015-02-05T20:59:09Z</time>
      </trkpt>
      <trkpt lat="61.208858445238" lon="14.539588487547">
        <ele>454.6</ele>
        <time>2015-02-05T20:59:13Z</time>
      </trkpt>
      <trkpt lat="61.208845788569" lon="14.539835753597">
        <ele>454.2</ele>
        <time>2015-02-05T20:59:17Z</time>
      </trkpt>
      <trkpt lat="61.208847464949" lon="14.53988579354">
        <ele>454</ele>
        <time>2015-02-05T20:59:18Z</time>
      </trkpt>
      <trkpt lat="61.208829946778" lon="14.540172119244">
        <ele>454</ele>
        <time>2015-02-05T20:59:23Z</time>
      </trkpt>
      <trkpt lat="61.208842603447" lon="14.540213861106">
        <ele>454.2</ele>
        <time>2015-02-05T20:59:24Z</time>
      </trkpt>
      <trkpt lat="61.208834724461" lon="14.540342355633">
        <ele>454.2</ele>
        <time>2015-02-05T20:59:26Z</time>
      </trkpt>
      <trkpt lat="61.20882558819" lon="14.540523069397">
        <ele>454.4</ele>
        <time>2015-02-05T20:59:31Z</time>
      </trkpt>
      <trkpt lat="61.208822151611" lon="14.540576545919">
        <ele>455.2</ele>
        <time>2015-02-05T20:59:35Z</time>
      </trkpt>
      <trkpt lat="61.208818798851" lon="14.540575372453">
        <ele>455.6</ele>
        <time>2015-02-05T20:59:36Z</time>
      </trkpt>
      <trkpt lat="61.20882307362" lon="14.54057059477">
        <ele>456.2</ele>
        <time>2015-02-05T20:59:38Z</time>
      </trkpt>
      <trkpt lat="61.208750905461" lon="14.541009471054">
        <ele>457.2</ele>
        <time>2015-02-05T21:00:02Z</time>
      </trkpt>
      <trkpt lat="61.208737326783" lon="14.541067138526">
        <ele>457.6</ele>
        <time>2015-02-05T21:00:04Z</time>
      </trkpt>
      <trkpt lat="61.208718635146" lon="14.541128326396">
        <ele>458.4</ele>
        <time>2015-02-05T21:00:07Z</time>
      </trkpt>
      <trkpt lat="61.208703966821" lon="14.54117912071">
        <ele>459.4</ele>
        <time>2015-02-05T21:00:11Z</time>
      </trkpt>
      <trkpt lat="61.208672702334" lon="14.541269980506">
        <ele>460.4</ele>
        <time>2015-02-05T21:00:17Z</time>
      </trkpt>
      <trkpt lat="61.208647724272" lon="14.541333096213">
        <ele>460.4</ele>
        <time>2015-02-05T21:00:19Z</time>
      </trkpt>
      <trkpt lat="61.208623332943" lon="14.541400905784">
        <ele>460.4</ele>
        <time>2015-02-05T21:00:21Z</time>
      </trkpt>
      <trkpt lat="61.208545465092" lon="14.541602909574">
        <ele>460.4</ele>
        <time>2015-02-05T21:00:26Z</time>
      </trkpt>
      <trkpt lat="61.208492072389" lon="14.541714137387">
        <ele>460.6</ele>
        <time>2015-02-05T21:00:30Z</time>
      </trkpt>
      <trkpt lat="61.208431387433" lon="14.541826454847">
        <ele>461.2</ele>
        <time>2015-02-05T21:00:34Z</time>
      </trkpt>
      <trkpt lat="61.208386879544" lon="14.541900467024">
        <ele>461.4</ele>
        <time>2015-02-05T21:00:36Z</time>
      </trkpt>
      <trkpt lat="61.208355782695" lon="14.541970204432">
        <ele>461.6</ele>
        <time>2015-02-05T21:00:38Z</time>
      </trkpt>
      <trkpt lat="61.208265509632" lon="14.542136166052">
        <ele>462</ele>
        <time>2015-02-05T21:00:42Z</time>
      </trkpt>
      <trkpt lat="61.208231227661" lon="14.542207915116">
        <ele>462.4</ele>
        <time>2015-02-05T21:00:44Z</time>
      </trkpt>
      <trkpt lat="61.208214631499" lon="14.542243454372">
        <ele>462.4</ele>
        <time>2015-02-05T21:00:45Z</time>
      </trkpt>
      <trkpt lat="61.208148246851" lon="14.542421402109">
        <ele>463</ele>
        <time>2015-02-05T21:00:50Z</time>
      </trkpt>
      <trkpt lat="61.208116395631" lon="14.542510753163">
        <ele>463.4</ele>
        <time>2015-02-05T21:00:55Z</time>
      </trkpt>
      <trkpt lat="61.208114970708" lon="14.542505304928">
        <ele>463.6</ele>
        <time>2015-02-05T21:00:56Z</time>
      </trkpt>
      <trkpt lat="61.208105918256" lon="14.542540257451">
        <ele>464</ele>
        <time>2015-02-05T21:00:57Z</time>
      </trkpt>
      <trkpt lat="61.208092842492" lon="14.542583675693">
        <ele>464</ele>
        <time>2015-02-05T21:00:59Z</time>
      </trkpt>
      <trkpt lat="61.208036264667" lon="14.542851980312">
        <ele>464</ele>
        <time>2015-02-05T21:01:04Z</time>
      </trkpt>
      <trkpt lat="61.207982201412" lon="14.543035292465">
        <ele>464.4</ele>
        <time>2015-02-05T21:01:10Z</time>
      </trkpt>
      <trkpt lat="61.207936939152" lon="14.543206869958">
        <ele>464.6</ele>
        <time>2015-02-05T21:01:15Z</time>
      </trkpt>
      <trkpt lat="61.207906512855" lon="14.543237044798">
        <ele>464.8</ele>
        <time>2015-02-05T21:01:18Z</time>
      </trkpt>
    </trkseg>
  </trk>
</gpx>